<?xml version="1.0" encoding="UTF-8" standalone="no" ?>
<gpx xmlns="http://www.topografix.com/GPX/1/1" xmlns:xsi="http://www.w3.org/2001/XMLSchema-instance" xsi:schemaLocation="http://www.topografix.com/GPX/1/1 http://www.topografix.com/GPX/1/1/gpx.xsd" version="1.1" creator="VisuGPX - https://www.visugpx.com">
  <metadata>
    <name>Alco_St_sauveur</name>
  </metadata>
  <trk>
    <name><![CDATA[Alco_St_sauveur_1]]></name>
    <extensions>
      <line xmlns="http://www.topografix.com/GPX/gpx_style/0/2">
        <color>0000FF</color>
        <width>4</width>
      </line>
    </extensions>
    <trkseg>
      <trkpt lat="43.62622" lon="3.8321">
        <ele>80.2</ele>
        <time>2022-01-16T12:10:27Z</time>
      </trkpt>
      <trkpt lat="43.62669" lon="3.83174">
        <ele>82.1</ele>
        <time>2022-01-16T12:10:37Z</time>
      </trkpt>
      <trkpt lat="43.6268" lon="3.83149">
        <ele>83.1</ele>
        <time>2022-01-16T12:10:47Z</time>
      </trkpt>
      <trkpt lat="43.62704" lon="3.83132">
        <ele>84.4</ele>
        <time>2022-01-16T12:10:57Z</time>
      </trkpt>
      <trkpt lat="43.62729" lon="3.83117">
        <ele>85.8</ele>
        <time>2022-01-16T12:11:07Z</time>
      </trkpt>
      <trkpt lat="43.62754" lon="3.83104">
        <ele>85.9</ele>
        <time>2022-01-16T12:11:17Z</time>
      </trkpt>
      <trkpt lat="43.62785" lon="3.83098">
        <ele>85.2</ele>
        <time>2022-01-16T12:11:27Z</time>
      </trkpt>
      <trkpt lat="43.6282" lon="3.83089">
        <ele>84.2</ele>
        <time>2022-01-16T12:11:37Z</time>
      </trkpt>
      <trkpt lat="43.62849" lon="3.83086">
        <ele>83.5</ele>
        <time>2022-01-16T12:11:47Z</time>
      </trkpt>
      <trkpt lat="43.62884" lon="3.83087">
        <ele>83</ele>
        <time>2022-01-16T12:11:57Z</time>
      </trkpt>
      <trkpt lat="43.62915" lon="3.83092">
        <ele>82.4</ele>
        <time>2022-01-16T12:12:07Z</time>
      </trkpt>
      <trkpt lat="43.62956" lon="3.83105">
        <ele>82</ele>
        <time>2022-01-16T12:12:17Z</time>
      </trkpt>
      <trkpt lat="43.62991" lon="3.83117">
        <ele>81.5</ele>
        <time>2022-01-16T12:12:27Z</time>
      </trkpt>
      <trkpt lat="43.63021" lon="3.83107">
        <ele>81.1</ele>
        <time>2022-01-16T12:12:37Z</time>
      </trkpt>
      <trkpt lat="43.63061" lon="3.83113">
        <ele>80.8</ele>
        <time>2022-01-16T12:12:47Z</time>
      </trkpt>
      <trkpt lat="43.631" lon="3.83124">
        <ele>80.3</ele>
        <time>2022-01-16T12:12:57Z</time>
      </trkpt>
      <trkpt lat="43.63135" lon="3.8311">
        <ele>80.9</ele>
        <time>2022-01-16T12:13:07Z</time>
      </trkpt>
      <trkpt lat="43.63171" lon="3.83107">
        <ele>80.1</ele>
        <time>2022-01-16T12:13:17Z</time>
      </trkpt>
      <trkpt lat="43.63208" lon="3.83094">
        <ele>80</ele>
        <time>2022-01-16T12:13:27Z</time>
      </trkpt>
      <trkpt lat="43.63236" lon="3.83081">
        <ele>80</ele>
        <time>2022-01-16T12:13:37Z</time>
      </trkpt>
      <trkpt lat="43.6326" lon="3.83073">
        <ele>80.1</ele>
        <time>2022-01-16T12:13:47Z</time>
      </trkpt>
      <trkpt lat="43.63286" lon="3.83055">
        <ele>81</ele>
        <time>2022-01-16T12:13:57Z</time>
      </trkpt>
      <trkpt lat="43.63314" lon="3.83034">
        <ele>81.3</ele>
        <time>2022-01-16T12:14:07Z</time>
      </trkpt>
      <trkpt lat="43.63343" lon="3.8301">
        <ele>82.6</ele>
        <time>2022-01-16T12:14:17Z</time>
      </trkpt>
      <trkpt lat="43.6337" lon="3.82988">
        <ele>82.8</ele>
        <time>2022-01-16T12:14:27Z</time>
      </trkpt>
      <trkpt lat="43.63394" lon="3.8296">
        <ele>83.2</ele>
        <time>2022-01-16T12:14:37Z</time>
      </trkpt>
      <trkpt lat="43.63414" lon="3.82937">
        <ele>83.9</ele>
        <time>2022-01-16T12:14:47Z</time>
      </trkpt>
      <trkpt lat="43.63443" lon="3.82905">
        <ele>83.5</ele>
        <time>2022-01-16T12:14:57Z</time>
      </trkpt>
      <trkpt lat="43.63469" lon="3.82868">
        <ele>82.7</ele>
        <time>2022-01-16T12:15:07Z</time>
      </trkpt>
      <trkpt lat="43.635" lon="3.82835">
        <ele>81.9</ele>
        <time>2022-01-16T12:15:17Z</time>
      </trkpt>
      <trkpt lat="43.63531" lon="3.82806">
        <ele>81.9</ele>
        <time>2022-01-16T12:15:27Z</time>
      </trkpt>
      <trkpt lat="43.63564" lon="3.82792">
        <ele>81.1</ele>
        <time>2022-01-16T12:15:37Z</time>
      </trkpt>
      <trkpt lat="43.63593" lon="3.82782">
        <ele>79.7</ele>
        <time>2022-01-16T12:15:47Z</time>
      </trkpt>
      <trkpt lat="43.63632" lon="3.82767">
        <ele>78.6</ele>
        <time>2022-01-16T12:15:57Z</time>
      </trkpt>
      <trkpt lat="43.63675" lon="3.82765">
        <ele>78.9</ele>
        <time>2022-01-16T12:16:07Z</time>
      </trkpt>
      <trkpt lat="43.63718" lon="3.82755">
        <ele>78.9</ele>
        <time>2022-01-16T12:16:17Z</time>
      </trkpt>
      <trkpt lat="43.6376" lon="3.82747">
        <ele>78.7</ele>
        <time>2022-01-16T12:16:27Z</time>
      </trkpt>
      <trkpt lat="43.63795" lon="3.8274">
        <ele>79.2</ele>
        <time>2022-01-16T12:16:37Z</time>
      </trkpt>
      <trkpt lat="43.63831" lon="3.82724">
        <ele>80.8</ele>
        <time>2022-01-16T12:16:47Z</time>
      </trkpt>
      <trkpt lat="43.63859" lon="3.82717">
        <ele>81.5</ele>
        <time>2022-01-16T12:16:57Z</time>
      </trkpt>
      <trkpt lat="43.63878" lon="3.82739">
        <ele>80.8</ele>
        <time>2022-01-16T12:17:07Z</time>
      </trkpt>
      <trkpt lat="43.639" lon="3.82766">
        <ele>80.3</ele>
        <time>2022-01-16T12:17:17Z</time>
      </trkpt>
      <trkpt lat="43.63922" lon="3.82815">
        <ele>78.7</ele>
        <time>2022-01-16T12:17:27Z</time>
      </trkpt>
      <trkpt lat="43.63929" lon="3.82826">
        <ele>78.6</ele>
        <time>2022-01-16T12:17:37Z</time>
      </trkpt>
      <trkpt lat="43.63953" lon="3.82815">
        <ele>79.3</ele>
        <time>2022-01-16T12:17:47Z</time>
      </trkpt>
      <trkpt lat="43.63974" lon="3.82801">
        <ele>80.2</ele>
        <time>2022-01-16T12:17:57Z</time>
      </trkpt>
      <trkpt lat="43.64002" lon="3.82796">
        <ele>82.1</ele>
        <time>2022-01-16T12:18:07Z</time>
      </trkpt>
      <trkpt lat="43.6402" lon="3.82772">
        <ele>83.6</ele>
        <time>2022-01-16T12:18:17Z</time>
      </trkpt>
      <trkpt lat="43.64045" lon="3.82756">
        <ele>84.7</ele>
        <time>2022-01-16T12:18:27Z</time>
      </trkpt>
      <trkpt lat="43.64068" lon="3.82734">
        <ele>85.6</ele>
        <time>2022-01-16T12:18:37Z</time>
      </trkpt>
      <trkpt lat="43.64092" lon="3.82717">
        <ele>86.4</ele>
        <time>2022-01-16T12:18:47Z</time>
      </trkpt>
      <trkpt lat="43.64114" lon="3.82694">
        <ele>87.9</ele>
        <time>2022-01-16T12:18:57Z</time>
      </trkpt>
      <trkpt lat="43.64134" lon="3.82671">
        <ele>88.9</ele>
        <time>2022-01-16T12:19:07Z</time>
      </trkpt>
      <trkpt lat="43.64155" lon="3.82648">
        <ele>89.8</ele>
        <time>2022-01-16T12:19:17Z</time>
      </trkpt>
      <trkpt lat="43.64174" lon="3.82621">
        <ele>91.4</ele>
        <time>2022-01-16T12:19:27Z</time>
      </trkpt>
      <trkpt lat="43.64195" lon="3.82593">
        <ele>91.9</ele>
        <time>2022-01-16T12:19:37Z</time>
      </trkpt>
      <trkpt lat="43.64213" lon="3.82564">
        <ele>93.1</ele>
        <time>2022-01-16T12:19:47Z</time>
      </trkpt>
      <trkpt lat="43.64229" lon="3.82531">
        <ele>94.1</ele>
        <time>2022-01-16T12:19:57Z</time>
      </trkpt>
      <trkpt lat="43.64247" lon="3.82496">
        <ele>93.7</ele>
        <time>2022-01-16T12:20:07Z</time>
      </trkpt>
      <trkpt lat="43.64261" lon="3.8246">
        <ele>95.5</ele>
        <time>2022-01-16T12:20:17Z</time>
      </trkpt>
      <trkpt lat="43.64276" lon="3.82425">
        <ele>95.5</ele>
        <time>2022-01-16T12:20:27Z</time>
      </trkpt>
      <trkpt lat="43.64296" lon="3.82391">
        <ele>96.6</ele>
        <time>2022-01-16T12:20:37Z</time>
      </trkpt>
      <trkpt lat="43.6431" lon="3.82361">
        <ele>96.8</ele>
        <time>2022-01-16T12:20:47Z</time>
      </trkpt>
      <trkpt lat="43.64327" lon="3.82338">
        <ele>97.5</ele>
        <time>2022-01-16T12:20:57Z</time>
      </trkpt>
      <trkpt lat="43.64339" lon="3.82302">
        <ele>97.9</ele>
        <time>2022-01-16T12:21:07Z</time>
      </trkpt>
      <trkpt lat="43.64356" lon="3.82272">
        <ele>98.2</ele>
        <time>2022-01-16T12:21:17Z</time>
      </trkpt>
      <trkpt lat="43.64385" lon="3.8226">
        <ele>98</ele>
        <time>2022-01-16T12:21:27Z</time>
      </trkpt>
      <trkpt lat="43.64411" lon="3.82244">
        <ele>98</ele>
        <time>2022-01-16T12:21:37Z</time>
      </trkpt>
      <trkpt lat="43.64431" lon="3.82252">
        <ele>98.1</ele>
        <time>2022-01-16T12:21:47Z</time>
      </trkpt>
      <trkpt lat="43.64458" lon="3.82274">
        <ele>98</ele>
        <time>2022-01-16T12:21:57Z</time>
      </trkpt>
      <trkpt lat="43.64479" lon="3.82286">
        <ele>98.1</ele>
        <time>2022-01-16T12:22:07Z</time>
      </trkpt>
      <trkpt lat="43.64504" lon="3.823">
        <ele>99.9</ele>
        <time>2022-01-16T12:22:17Z</time>
      </trkpt>
      <trkpt lat="43.6453" lon="3.82308">
        <ele>101</ele>
        <time>2022-01-16T12:22:27Z</time>
      </trkpt>
      <trkpt lat="43.64558" lon="3.82313">
        <ele>101.5</ele>
        <time>2022-01-16T12:22:37Z</time>
      </trkpt>
      <trkpt lat="43.64583" lon="3.8233">
        <ele>100.2</ele>
        <time>2022-01-16T12:22:47Z</time>
      </trkpt>
      <trkpt lat="43.64608" lon="3.82351">
        <ele>100</ele>
        <time>2022-01-16T12:22:57Z</time>
      </trkpt>
      <trkpt lat="43.64636" lon="3.82369">
        <ele>100</ele>
        <time>2022-01-16T12:23:07Z</time>
      </trkpt>
      <trkpt lat="43.64666" lon="3.82394">
        <ele>100.2</ele>
        <time>2022-01-16T12:23:17Z</time>
      </trkpt>
      <trkpt lat="43.64696" lon="3.82413">
        <ele>101</ele>
        <time>2022-01-16T12:23:27Z</time>
      </trkpt>
      <trkpt lat="43.64726" lon="3.82429">
        <ele>101.6</ele>
        <time>2022-01-16T12:23:37Z</time>
      </trkpt>
      <trkpt lat="43.64757" lon="3.82432">
        <ele>102.8</ele>
        <time>2022-01-16T12:23:47Z</time>
      </trkpt>
      <trkpt lat="43.64786" lon="3.82426">
        <ele>103.8</ele>
        <time>2022-01-16T12:23:57Z</time>
      </trkpt>
      <trkpt lat="43.64811" lon="3.82421">
        <ele>105</ele>
        <time>2022-01-16T12:24:07Z</time>
      </trkpt>
      <trkpt lat="43.64837" lon="3.82417">
        <ele>105.3</ele>
        <time>2022-01-16T12:24:17Z</time>
      </trkpt>
      <trkpt lat="43.64863" lon="3.82413">
        <ele>106.9</ele>
        <time>2022-01-16T12:24:27Z</time>
      </trkpt>
      <trkpt lat="43.64882" lon="3.8243">
        <ele>107.8</ele>
        <time>2022-01-16T12:24:37Z</time>
      </trkpt>
      <trkpt lat="43.64895" lon="3.82448">
        <ele>109.1</ele>
        <time>2022-01-16T12:24:47Z</time>
      </trkpt>
      <trkpt lat="43.64913" lon="3.82462">
        <ele>109.6</ele>
        <time>2022-01-16T12:24:57Z</time>
      </trkpt>
      <trkpt lat="43.64933" lon="3.82451">
        <ele>109.8</ele>
        <time>2022-01-16T12:25:07Z</time>
      </trkpt>
      <trkpt lat="43.64955" lon="3.8244">
        <ele>110.8</ele>
        <time>2022-01-16T12:25:17Z</time>
      </trkpt>
      <trkpt lat="43.64973" lon="3.82428">
        <ele>112.5</ele>
        <time>2022-01-16T12:25:27Z</time>
      </trkpt>
      <trkpt lat="43.64991" lon="3.82422">
        <ele>114.2</ele>
        <time>2022-01-16T12:25:37Z</time>
      </trkpt>
      <trkpt lat="43.6501" lon="3.82417">
        <ele>116.1</ele>
        <time>2022-01-16T12:25:47Z</time>
      </trkpt>
      <trkpt lat="43.65027" lon="3.82412">
        <ele>117.2</ele>
        <time>2022-01-16T12:25:57Z</time>
      </trkpt>
      <trkpt lat="43.65045" lon="3.82407">
        <ele>117.7</ele>
        <time>2022-01-16T12:26:07Z</time>
      </trkpt>
      <trkpt lat="43.65063" lon="3.82403">
        <ele>119</ele>
        <time>2022-01-16T12:26:17Z</time>
      </trkpt>
      <trkpt lat="43.65071" lon="3.82373">
        <ele>118.1</ele>
        <time>2022-01-16T12:26:27Z</time>
      </trkpt>
      <trkpt lat="43.65094" lon="3.82352">
        <ele>118.1</ele>
        <time>2022-01-16T12:26:37Z</time>
      </trkpt>
      <trkpt lat="43.65115" lon="3.8236">
        <ele>119.6</ele>
        <time>2022-01-16T12:26:47Z</time>
      </trkpt>
      <trkpt lat="43.65136" lon="3.82378">
        <ele>119.9</ele>
        <time>2022-01-16T12:26:57Z</time>
      </trkpt>
      <trkpt lat="43.65151" lon="3.82412">
        <ele>119.6</ele>
        <time>2022-01-16T12:27:07Z</time>
      </trkpt>
      <trkpt lat="43.65161" lon="3.82458">
        <ele>117.9</ele>
        <time>2022-01-16T12:27:17Z</time>
      </trkpt>
      <trkpt lat="43.65164" lon="3.82514">
        <ele>117.6</ele>
        <time>2022-01-16T12:27:27Z</time>
      </trkpt>
      <trkpt lat="43.65196" lon="3.82517">
        <ele>113</ele>
        <time>2022-01-16T12:27:37Z</time>
      </trkpt>
      <trkpt lat="43.65233" lon="3.82529">
        <ele>109.2</ele>
        <time>2022-01-16T12:27:47Z</time>
      </trkpt>
      <trkpt lat="43.65274" lon="3.82542">
        <ele>105.9</ele>
        <time>2022-01-16T12:27:57Z</time>
      </trkpt>
      <trkpt lat="43.65315" lon="3.82563">
        <ele>104.3</ele>
        <time>2022-01-16T12:28:07Z</time>
      </trkpt>
      <trkpt lat="43.65361" lon="3.82592">
        <ele>102.6</ele>
        <time>2022-01-16T12:28:17Z</time>
      </trkpt>
      <trkpt lat="43.65399" lon="3.82609">
        <ele>103.2</ele>
        <time>2022-01-16T12:28:27Z</time>
      </trkpt>
      <trkpt lat="43.65435" lon="3.82628">
        <ele>104.2</ele>
        <time>2022-01-16T12:28:37Z</time>
      </trkpt>
      <trkpt lat="43.65461" lon="3.82659">
        <ele>106.7</ele>
        <time>2022-01-16T12:28:47Z</time>
      </trkpt>
      <trkpt lat="43.65483" lon="3.82674">
        <ele>107.5</ele>
        <time>2022-01-16T12:28:57Z</time>
      </trkpt>
      <trkpt lat="43.65502" lon="3.82697">
        <ele>108</ele>
        <time>2022-01-16T12:29:07Z</time>
      </trkpt>
      <trkpt lat="43.65512" lon="3.82726">
        <ele>109.8</ele>
        <time>2022-01-16T12:29:17Z</time>
      </trkpt>
      <trkpt lat="43.65522" lon="3.82751">
        <ele>111.9</ele>
        <time>2022-01-16T12:29:27Z</time>
      </trkpt>
      <trkpt lat="43.65537" lon="3.82775">
        <ele>110.5</ele>
        <time>2022-01-16T12:29:37Z</time>
      </trkpt>
      <trkpt lat="43.65556" lon="3.82797">
        <ele>110</ele>
        <time>2022-01-16T12:29:47Z</time>
      </trkpt>
      <trkpt lat="43.65574" lon="3.82806">
        <ele>108.4</ele>
        <time>2022-01-16T12:29:57Z</time>
      </trkpt>
      <trkpt lat="43.65591" lon="3.82816">
        <ele>107.5</ele>
        <time>2022-01-16T12:30:07Z</time>
      </trkpt>
      <trkpt lat="43.65594" lon="3.82847">
        <ele>109.5</ele>
        <time>2022-01-16T12:30:17Z</time>
      </trkpt>
      <trkpt lat="43.65611" lon="3.82877">
        <ele>107</ele>
        <time>2022-01-16T12:30:27Z</time>
      </trkpt>
      <trkpt lat="43.65634" lon="3.82894">
        <ele>105</ele>
        <time>2022-01-16T12:30:37Z</time>
      </trkpt>
      <trkpt lat="43.65666" lon="3.82909">
        <ele>100.9</ele>
        <time>2022-01-16T12:30:47Z</time>
      </trkpt>
      <trkpt lat="43.65701" lon="3.82922">
        <ele>96.3</ele>
        <time>2022-01-16T12:30:57Z</time>
      </trkpt>
      <trkpt lat="43.65732" lon="3.82929">
        <ele>93</ele>
        <time>2022-01-16T12:31:07Z</time>
      </trkpt>
      <trkpt lat="43.65757" lon="3.82979">
        <ele>91.4</ele>
        <time>2022-01-16T12:31:17Z</time>
      </trkpt>
      <trkpt lat="43.65775" lon="3.83026">
        <ele>90.2</ele>
        <time>2022-01-16T12:31:27Z</time>
      </trkpt>
      <trkpt lat="43.65799" lon="3.83029">
        <ele>89.9</ele>
        <time>2022-01-16T12:31:37Z</time>
      </trkpt>
      <trkpt lat="43.65829" lon="3.83011">
        <ele>90.7</ele>
        <time>2022-01-16T12:31:47Z</time>
      </trkpt>
      <trkpt lat="43.65862" lon="3.83009">
        <ele>91</ele>
        <time>2022-01-16T12:31:57Z</time>
      </trkpt>
      <trkpt lat="43.65894" lon="3.83006">
        <ele>92.3</ele>
        <time>2022-01-16T12:32:07Z</time>
      </trkpt>
      <trkpt lat="43.65922" lon="3.83001">
        <ele>94</ele>
        <time>2022-01-16T12:32:17Z</time>
      </trkpt>
      <trkpt lat="43.6595" lon="3.82996">
        <ele>94.8</ele>
        <time>2022-01-16T12:32:27Z</time>
      </trkpt>
      <trkpt lat="43.65976" lon="3.82993">
        <ele>94.8</ele>
        <time>2022-01-16T12:32:37Z</time>
      </trkpt>
      <trkpt lat="43.66001" lon="3.82989">
        <ele>95.7</ele>
        <time>2022-01-16T12:32:47Z</time>
      </trkpt>
      <trkpt lat="43.66028" lon="3.82983">
        <ele>98.2</ele>
        <time>2022-01-16T12:32:57Z</time>
      </trkpt>
      <trkpt lat="43.66055" lon="3.82981">
        <ele>100.7</ele>
        <time>2022-01-16T12:33:07Z</time>
      </trkpt>
      <trkpt lat="43.66083" lon="3.82979">
        <ele>101.3</ele>
        <time>2022-01-16T12:33:17Z</time>
      </trkpt>
      <trkpt lat="43.66111" lon="3.82984">
        <ele>103.3</ele>
        <time>2022-01-16T12:33:27Z</time>
      </trkpt>
      <trkpt lat="43.66137" lon="3.82996">
        <ele>103.3</ele>
        <time>2022-01-16T12:33:37Z</time>
      </trkpt>
      <trkpt lat="43.6616" lon="3.83012">
        <ele>103.9</ele>
        <time>2022-01-16T12:33:47Z</time>
      </trkpt>
      <trkpt lat="43.66183" lon="3.83028">
        <ele>105.4</ele>
        <time>2022-01-16T12:33:57Z</time>
      </trkpt>
      <trkpt lat="43.66205" lon="3.83042">
        <ele>107.6</ele>
        <time>2022-01-16T12:34:07Z</time>
      </trkpt>
      <trkpt lat="43.66229" lon="3.83038">
        <ele>109.8</ele>
        <time>2022-01-16T12:34:17Z</time>
      </trkpt>
      <trkpt lat="43.66255" lon="3.83034">
        <ele>109.9</ele>
        <time>2022-01-16T12:34:27Z</time>
      </trkpt>
      <trkpt lat="43.66284" lon="3.83021">
        <ele>111</ele>
        <time>2022-01-16T12:34:37Z</time>
      </trkpt>
      <trkpt lat="43.6631" lon="3.83006">
        <ele>112.1</ele>
        <time>2022-01-16T12:34:47Z</time>
      </trkpt>
      <trkpt lat="43.66332" lon="3.82993">
        <ele>113.7</ele>
        <time>2022-01-16T12:34:57Z</time>
      </trkpt>
      <trkpt lat="43.66352" lon="3.82976">
        <ele>114.6</ele>
        <time>2022-01-16T12:35:07Z</time>
      </trkpt>
      <trkpt lat="43.66368" lon="3.8296">
        <ele>115.7</ele>
        <time>2022-01-16T12:35:57Z</time>
      </trkpt>
      <trkpt lat="43.66386" lon="3.82945">
        <ele>116.2</ele>
        <time>2022-01-16T12:36:17Z</time>
      </trkpt>
      <trkpt lat="43.66403" lon="3.82929">
        <ele>117.7</ele>
        <time>2022-01-16T12:36:27Z</time>
      </trkpt>
      <trkpt lat="43.66421" lon="3.82913">
        <ele>118.2</ele>
        <time>2022-01-16T12:36:37Z</time>
      </trkpt>
      <trkpt lat="43.66444" lon="3.82895">
        <ele>118.8</ele>
        <time>2022-01-16T12:36:47Z</time>
      </trkpt>
      <trkpt lat="43.66471" lon="3.82879">
        <ele>118.4</ele>
        <time>2022-01-16T12:36:57Z</time>
      </trkpt>
      <trkpt lat="43.66504" lon="3.82856">
        <ele>117.2</ele>
        <time>2022-01-16T12:37:07Z</time>
      </trkpt>
      <trkpt lat="43.66539" lon="3.82825">
        <ele>116.8</ele>
        <time>2022-01-16T12:37:17Z</time>
      </trkpt>
      <trkpt lat="43.66571" lon="3.82804">
        <ele>115.5</ele>
        <time>2022-01-16T12:37:27Z</time>
      </trkpt>
      <trkpt lat="43.66604" lon="3.82781">
        <ele>114.3</ele>
        <time>2022-01-16T12:37:37Z</time>
      </trkpt>
      <trkpt lat="43.66631" lon="3.8276">
        <ele>114.2</ele>
        <time>2022-01-16T12:37:47Z</time>
      </trkpt>
      <trkpt lat="43.66668" lon="3.82719">
        <ele>114</ele>
        <time>2022-01-16T12:37:57Z</time>
      </trkpt>
      <trkpt lat="43.66679" lon="3.8269">
        <ele>114.5</ele>
        <time>2022-01-16T12:38:07Z</time>
      </trkpt>
      <trkpt lat="43.66689" lon="3.82675">
        <ele>115.4</ele>
        <time>2022-01-16T12:38:17Z</time>
      </trkpt>
      <trkpt lat="43.66719" lon="3.82666">
        <ele>114.3</ele>
        <time>2022-01-16T12:38:27Z</time>
      </trkpt>
      <trkpt lat="43.66747" lon="3.82647">
        <ele>114.9</ele>
        <time>2022-01-16T12:38:37Z</time>
      </trkpt>
      <trkpt lat="43.66782" lon="3.82623">
        <ele>113.4</ele>
        <time>2022-01-16T12:38:47Z</time>
      </trkpt>
      <trkpt lat="43.66817" lon="3.82587">
        <ele>113.8</ele>
        <time>2022-01-16T12:38:57Z</time>
      </trkpt>
      <trkpt lat="43.66847" lon="3.82564">
        <ele>113.3</ele>
        <time>2022-01-16T12:39:07Z</time>
      </trkpt>
      <trkpt lat="43.66877" lon="3.82534">
        <ele>112.7</ele>
        <time>2022-01-16T12:39:17Z</time>
      </trkpt>
      <trkpt lat="43.66906" lon="3.82507">
        <ele>113.6</ele>
        <time>2022-01-16T12:39:27Z</time>
      </trkpt>
      <trkpt lat="43.66933" lon="3.8248">
        <ele>114.4</ele>
        <time>2022-01-16T12:39:37Z</time>
      </trkpt>
      <trkpt lat="43.6696" lon="3.82449">
        <ele>113.5</ele>
        <time>2022-01-16T12:39:47Z</time>
      </trkpt>
      <trkpt lat="43.66988" lon="3.82413">
        <ele>114.3</ele>
        <time>2022-01-16T12:39:57Z</time>
      </trkpt>
      <trkpt lat="43.67005" lon="3.82399">
        <ele>115.5</ele>
        <time>2022-01-16T12:40:07Z</time>
      </trkpt>
      <trkpt lat="43.67018" lon="3.82379">
        <ele>115.9</ele>
        <time>2022-01-16T12:40:17Z</time>
      </trkpt>
      <trkpt lat="43.67028" lon="3.82349">
        <ele>117.4</ele>
        <time>2022-01-16T12:40:27Z</time>
      </trkpt>
      <trkpt lat="43.67037" lon="3.82324">
        <ele>118.2</ele>
        <time>2022-01-16T12:40:37Z</time>
      </trkpt>
      <trkpt lat="43.67046" lon="3.82296">
        <ele>119.2</ele>
        <time>2022-01-16T12:40:47Z</time>
      </trkpt>
      <trkpt lat="43.67055" lon="3.82265">
        <ele>119.5</ele>
        <time>2022-01-16T12:40:57Z</time>
      </trkpt>
      <trkpt lat="43.67077" lon="3.82263">
        <ele>118.4</ele>
        <time>2022-01-16T12:41:07Z</time>
      </trkpt>
      <trkpt lat="43.67117" lon="3.82291">
        <ele>119.3</ele>
        <time>2022-01-16T12:41:17Z</time>
      </trkpt>
      <trkpt lat="43.67135" lon="3.82302">
        <ele>118.8</ele>
        <time>2022-01-16T12:41:27Z</time>
      </trkpt>
      <trkpt lat="43.67154" lon="3.82276">
        <ele>119.2</ele>
        <time>2022-01-16T12:41:37Z</time>
      </trkpt>
      <trkpt lat="43.67173" lon="3.82249">
        <ele>120.3</ele>
        <time>2022-01-16T12:41:47Z</time>
      </trkpt>
      <trkpt lat="43.67191" lon="3.82226">
        <ele>121.8</ele>
        <time>2022-01-16T12:41:57Z</time>
      </trkpt>
      <trkpt lat="43.67203" lon="3.82207">
        <ele>123.8</ele>
        <time>2022-01-16T12:42:07Z</time>
      </trkpt>
      <trkpt lat="43.67214" lon="3.82188">
        <ele>125.6</ele>
        <time>2022-01-16T12:42:17Z</time>
      </trkpt>
      <trkpt lat="43.67225" lon="3.82173">
        <ele>127.4</ele>
        <time>2022-01-16T12:42:37Z</time>
      </trkpt>
      <trkpt lat="43.67244" lon="3.82173">
        <ele>128.3</ele>
        <time>2022-01-16T12:42:57Z</time>
      </trkpt>
      <trkpt lat="43.6726" lon="3.82168">
        <ele>129.3</ele>
        <time>2022-01-16T12:43:17Z</time>
      </trkpt>
      <trkpt lat="43.67275" lon="3.82179">
        <ele>129.8</ele>
        <time>2022-01-16T12:43:27Z</time>
      </trkpt>
      <trkpt lat="43.67288" lon="3.82171">
        <ele>131.1</ele>
        <time>2022-01-16T12:43:37Z</time>
      </trkpt>
      <trkpt lat="43.673" lon="3.82155">
        <ele>132.5</ele>
        <time>2022-01-16T12:43:47Z</time>
      </trkpt>
      <trkpt lat="43.67314" lon="3.82149">
        <ele>133.9</ele>
        <time>2022-01-16T12:43:57Z</time>
      </trkpt>
      <trkpt lat="43.67327" lon="3.82144">
        <ele>135.3</ele>
        <time>2022-01-16T12:44:07Z</time>
      </trkpt>
      <trkpt lat="43.67339" lon="3.8214">
        <ele>136.8</ele>
        <time>2022-01-16T12:44:17Z</time>
      </trkpt>
      <trkpt lat="43.67351" lon="3.82137">
        <ele>138.5</ele>
        <time>2022-01-16T12:44:27Z</time>
      </trkpt>
      <trkpt lat="43.67362" lon="3.82136">
        <ele>139.9</ele>
        <time>2022-01-16T12:44:37Z</time>
      </trkpt>
      <trkpt lat="43.67375" lon="3.82133">
        <ele>139.8</ele>
        <time>2022-01-16T12:44:47Z</time>
      </trkpt>
      <trkpt lat="43.67399" lon="3.82135">
        <ele>139.5</ele>
        <time>2022-01-16T12:44:57Z</time>
      </trkpt>
      <trkpt lat="43.67426" lon="3.82132">
        <ele>138.2</ele>
        <time>2022-01-16T12:45:07Z</time>
      </trkpt>
      <trkpt lat="43.67453" lon="3.82129">
        <ele>136</ele>
        <time>2022-01-16T12:45:17Z</time>
      </trkpt>
      <trkpt lat="43.67483" lon="3.82128">
        <ele>133.4</ele>
        <time>2022-01-16T12:45:27Z</time>
      </trkpt>
      <trkpt lat="43.67521" lon="3.82121">
        <ele>129.4</ele>
        <time>2022-01-16T12:45:37Z</time>
      </trkpt>
      <trkpt lat="43.67555" lon="3.82119">
        <ele>124.4</ele>
        <time>2022-01-16T12:45:47Z</time>
      </trkpt>
      <trkpt lat="43.67564" lon="3.82146">
        <ele>124.7</ele>
        <time>2022-01-16T12:45:57Z</time>
      </trkpt>
      <trkpt lat="43.67574" lon="3.8217">
        <ele>125.8</ele>
        <time>2022-01-16T12:46:07Z</time>
      </trkpt>
      <trkpt lat="43.67593" lon="3.82167">
        <ele>124</ele>
        <time>2022-01-16T12:46:17Z</time>
      </trkpt>
      <trkpt lat="43.67619" lon="3.82172">
        <ele>124.9</ele>
        <time>2022-01-16T12:46:27Z</time>
      </trkpt>
      <trkpt lat="43.67638" lon="3.82175">
        <ele>125.9</ele>
        <time>2022-01-16T12:46:37Z</time>
      </trkpt>
      <trkpt lat="43.6765" lon="3.82199">
        <ele>127.4</ele>
        <time>2022-01-16T12:46:47Z</time>
      </trkpt>
      <trkpt lat="43.67671" lon="3.82208">
        <ele>126.8</ele>
        <time>2022-01-16T12:46:57Z</time>
      </trkpt>
      <trkpt lat="43.67692" lon="3.82212">
        <ele>126.4</ele>
        <time>2022-01-16T12:47:07Z</time>
      </trkpt>
      <trkpt lat="43.67717" lon="3.82231">
        <ele>125.7</ele>
        <time>2022-01-16T12:47:17Z</time>
      </trkpt>
      <trkpt lat="43.67741" lon="3.82252">
        <ele>124.6</ele>
        <time>2022-01-16T12:47:27Z</time>
      </trkpt>
      <trkpt lat="43.67768" lon="3.82275">
        <ele>123.4</ele>
        <time>2022-01-16T12:47:37Z</time>
      </trkpt>
      <trkpt lat="43.67795" lon="3.82287">
        <ele>123.4</ele>
        <time>2022-01-16T12:47:47Z</time>
      </trkpt>
      <trkpt lat="43.6782" lon="3.82305">
        <ele>123</ele>
        <time>2022-01-16T12:47:57Z</time>
      </trkpt>
      <trkpt lat="43.67848" lon="3.82324">
        <ele>122.3</ele>
        <time>2022-01-16T12:48:07Z</time>
      </trkpt>
      <trkpt lat="43.67876" lon="3.8234">
        <ele>122.2</ele>
        <time>2022-01-16T12:48:17Z</time>
      </trkpt>
      <trkpt lat="43.67902" lon="3.82338">
        <ele>122.4</ele>
        <time>2022-01-16T12:48:27Z</time>
      </trkpt>
      <trkpt lat="43.67923" lon="3.82325">
        <ele>121.9</ele>
        <time>2022-01-16T12:48:37Z</time>
      </trkpt>
      <trkpt lat="43.67928" lon="3.82291">
        <ele>120.4</ele>
        <time>2022-01-16T12:48:47Z</time>
      </trkpt>
      <trkpt lat="43.67933" lon="3.8225">
        <ele>115.5</ele>
        <time>2022-01-16T12:48:57Z</time>
      </trkpt>
      <trkpt lat="43.67936" lon="3.8223">
        <ele>112.1</ele>
        <time>2022-01-16T12:49:07Z</time>
      </trkpt>
      <trkpt lat="43.67941" lon="3.82211">
        <ele>107.7</ele>
        <time>2022-01-16T12:49:17Z</time>
      </trkpt>
      <trkpt lat="43.67947" lon="3.82185">
        <ele>103.1</ele>
        <time>2022-01-16T12:49:27Z</time>
      </trkpt>
      <trkpt lat="43.67966" lon="3.82176">
        <ele>100.9</ele>
        <time>2022-01-16T12:49:37Z</time>
      </trkpt>
      <trkpt lat="43.68023" lon="3.8218">
        <ele>97.2</ele>
        <time>2022-01-16T12:49:47Z</time>
      </trkpt>
      <trkpt lat="43.68089" lon="3.82187">
        <ele>96.3</ele>
        <time>2022-01-16T12:49:57Z</time>
      </trkpt>
      <trkpt lat="43.68137" lon="3.8219">
        <ele>96.2</ele>
        <time>2022-01-16T12:50:07Z</time>
      </trkpt>
      <trkpt lat="43.68187" lon="3.82195">
        <ele>96</ele>
        <time>2022-01-16T12:50:17Z</time>
      </trkpt>
      <trkpt lat="43.68238" lon="3.82203">
        <ele>94.9</ele>
        <time>2022-01-16T12:50:27Z</time>
      </trkpt>
      <trkpt lat="43.68287" lon="3.8221">
        <ele>94.7</ele>
        <time>2022-01-16T12:50:37Z</time>
      </trkpt>
      <trkpt lat="43.68332" lon="3.82217">
        <ele>94</ele>
        <time>2022-01-16T12:50:47Z</time>
      </trkpt>
      <trkpt lat="43.68374" lon="3.82225">
        <ele>93.5</ele>
        <time>2022-01-16T12:50:57Z</time>
      </trkpt>
      <trkpt lat="43.68415" lon="3.82234">
        <ele>93</ele>
        <time>2022-01-16T12:51:07Z</time>
      </trkpt>
      <trkpt lat="43.68455" lon="3.82242">
        <ele>93.7</ele>
        <time>2022-01-16T12:51:17Z</time>
      </trkpt>
      <trkpt lat="43.68494" lon="3.82253">
        <ele>93.8</ele>
        <time>2022-01-16T12:51:27Z</time>
      </trkpt>
      <trkpt lat="43.68531" lon="3.82267">
        <ele>94</ele>
        <time>2022-01-16T12:51:37Z</time>
      </trkpt>
      <trkpt lat="43.68569" lon="3.82282">
        <ele>94.4</ele>
        <time>2022-01-16T12:51:47Z</time>
      </trkpt>
      <trkpt lat="43.68609" lon="3.82296">
        <ele>95</ele>
        <time>2022-01-16T12:51:57Z</time>
      </trkpt>
      <trkpt lat="43.68646" lon="3.82309">
        <ele>96.1</ele>
        <time>2022-01-16T12:52:07Z</time>
      </trkpt>
      <trkpt lat="43.68679" lon="3.82327">
        <ele>96.8</ele>
        <time>2022-01-16T12:52:17Z</time>
      </trkpt>
      <trkpt lat="43.68713" lon="3.82352">
        <ele>96.5</ele>
        <time>2022-01-16T12:52:27Z</time>
      </trkpt>
      <trkpt lat="43.68747" lon="3.82391">
        <ele>96.8</ele>
        <time>2022-01-16T12:52:37Z</time>
      </trkpt>
      <trkpt lat="43.68772" lon="3.82433">
        <ele>96.3</ele>
        <time>2022-01-16T12:52:47Z</time>
      </trkpt>
      <trkpt lat="43.68796" lon="3.82464">
        <ele>97.8</ele>
        <time>2022-01-16T12:52:57Z</time>
      </trkpt>
      <trkpt lat="43.68828" lon="3.8245">
        <ele>98.5</ele>
        <time>2022-01-16T12:53:07Z</time>
      </trkpt>
      <trkpt lat="43.68861" lon="3.82439">
        <ele>98.4</ele>
        <time>2022-01-16T12:53:17Z</time>
      </trkpt>
      <trkpt lat="43.68891" lon="3.8244">
        <ele>99.1</ele>
        <time>2022-01-16T12:53:27Z</time>
      </trkpt>
      <trkpt lat="43.68918" lon="3.82441">
        <ele>100</ele>
        <time>2022-01-16T12:53:37Z</time>
      </trkpt>
      <trkpt lat="43.68937" lon="3.82447">
        <ele>101.7</ele>
        <time>2022-01-16T12:53:47Z</time>
      </trkpt>
      <trkpt lat="43.68951" lon="3.82457">
        <ele>104.2</ele>
        <time>2022-01-16T12:53:57Z</time>
      </trkpt>
      <trkpt lat="43.68965" lon="3.82465">
        <ele>106.6</ele>
        <time>2022-01-16T12:54:07Z</time>
      </trkpt>
      <trkpt lat="43.68979" lon="3.82471">
        <ele>108.8</ele>
        <time>2022-01-16T12:54:17Z</time>
      </trkpt>
      <trkpt lat="43.68992" lon="3.82478">
        <ele>111</ele>
        <time>2022-01-16T12:54:27Z</time>
      </trkpt>
      <trkpt lat="43.69005" lon="3.82491">
        <ele>111.9</ele>
        <time>2022-01-16T12:54:37Z</time>
      </trkpt>
      <trkpt lat="43.69019" lon="3.82497">
        <ele>112.4</ele>
        <time>2022-01-16T12:54:47Z</time>
      </trkpt>
      <trkpt lat="43.69038" lon="3.82509">
        <ele>112.4</ele>
        <time>2022-01-16T12:54:57Z</time>
      </trkpt>
      <trkpt lat="43.69073" lon="3.8253">
        <ele>111.8</ele>
        <time>2022-01-16T12:55:07Z</time>
      </trkpt>
      <trkpt lat="43.6912" lon="3.82555">
        <ele>109.6</ele>
        <time>2022-01-16T12:55:17Z</time>
      </trkpt>
      <trkpt lat="43.69143" lon="3.82574">
        <ele>111.5</ele>
        <time>2022-01-16T12:55:27Z</time>
      </trkpt>
      <trkpt lat="43.69169" lon="3.82584">
        <ele>111.9</ele>
        <time>2022-01-16T12:55:37Z</time>
      </trkpt>
      <trkpt lat="43.69206" lon="3.82604">
        <ele>108.8</ele>
        <time>2022-01-16T12:55:47Z</time>
      </trkpt>
      <trkpt lat="43.69254" lon="3.8263">
        <ele>104.9</ele>
        <time>2022-01-16T12:55:57Z</time>
      </trkpt>
      <trkpt lat="43.69292" lon="3.82655">
        <ele>102.9</ele>
        <time>2022-01-16T12:56:07Z</time>
      </trkpt>
      <trkpt lat="43.69323" lon="3.82662">
        <ele>103.4</ele>
        <time>2022-01-16T12:56:17Z</time>
      </trkpt>
      <trkpt lat="43.69365" lon="3.82671">
        <ele>103</ele>
        <time>2022-01-16T12:56:27Z</time>
      </trkpt>
      <trkpt lat="43.69405" lon="3.82684">
        <ele>103.1</ele>
        <time>2022-01-16T12:56:37Z</time>
      </trkpt>
      <trkpt lat="43.69444" lon="3.82692">
        <ele>104.1</ele>
        <time>2022-01-16T12:56:47Z</time>
      </trkpt>
      <trkpt lat="43.69469" lon="3.82698">
        <ele>105</ele>
        <time>2022-01-16T12:56:57Z</time>
      </trkpt>
      <trkpt lat="43.69492" lon="3.82697">
        <ele>105.9</ele>
        <time>2022-01-16T12:57:07Z</time>
      </trkpt>
      <trkpt lat="43.69506" lon="3.82716">
        <ele>107.8</ele>
        <time>2022-01-16T12:57:17Z</time>
      </trkpt>
      <trkpt lat="43.69527" lon="3.8271">
        <ele>108.5</ele>
        <time>2022-01-16T12:57:27Z</time>
      </trkpt>
      <trkpt lat="43.69547" lon="3.82705">
        <ele>108.4</ele>
        <time>2022-01-16T12:57:37Z</time>
      </trkpt>
      <trkpt lat="43.69569" lon="3.82703">
        <ele>107.7</ele>
        <time>2022-01-16T12:57:47Z</time>
      </trkpt>
      <trkpt lat="43.69579" lon="3.82694">
        <ele>107.2</ele>
        <time>2022-01-16T12:58:47Z</time>
      </trkpt>
      <trkpt lat="43.69593" lon="3.82696">
        <ele>106.6</ele>
        <time>2022-01-16T12:59:37Z</time>
      </trkpt>
      <trkpt lat="43.696" lon="3.82725">
        <ele>105.6</ele>
        <time>2022-01-16T12:59:57Z</time>
      </trkpt>
      <trkpt lat="43.69618" lon="3.82743">
        <ele>104</ele>
        <time>2022-01-16T13:00:07Z</time>
      </trkpt>
      <trkpt lat="43.6964" lon="3.82766">
        <ele>105.2</ele>
        <time>2022-01-16T13:00:17Z</time>
      </trkpt>
      <trkpt lat="43.69651" lon="3.82784">
        <ele>106.6</ele>
        <time>2022-01-16T13:00:27Z</time>
      </trkpt>
      <trkpt lat="43.69657" lon="3.82791">
        <ele>107.3</ele>
        <time>2022-01-16T13:00:37Z</time>
      </trkpt>
      <trkpt lat="43.69663" lon="3.82798">
        <ele>107.8</ele>
        <time>2022-01-16T13:00:47Z</time>
      </trkpt>
      <trkpt lat="43.69692" lon="3.82807">
        <ele>107.9</ele>
        <time>2022-01-16T13:00:57Z</time>
      </trkpt>
      <trkpt lat="43.69717" lon="3.82838">
        <ele>106.5</ele>
        <time>2022-01-16T13:01:07Z</time>
      </trkpt>
      <trkpt lat="43.6974" lon="3.82856">
        <ele>106</ele>
        <time>2022-01-16T13:01:17Z</time>
      </trkpt>
      <trkpt lat="43.69763" lon="3.8284">
        <ele>107.6</ele>
        <time>2022-01-16T13:01:27Z</time>
      </trkpt>
      <trkpt lat="43.69783" lon="3.82824">
        <ele>108.8</ele>
        <time>2022-01-16T13:01:37Z</time>
      </trkpt>
      <trkpt lat="43.69803" lon="3.82809">
        <ele>109.9</ele>
        <time>2022-01-16T13:01:47Z</time>
      </trkpt>
      <trkpt lat="43.69823" lon="3.82794">
        <ele>111.2</ele>
        <time>2022-01-16T13:01:57Z</time>
      </trkpt>
      <trkpt lat="43.69843" lon="3.82781">
        <ele>111.9</ele>
        <time>2022-01-16T13:02:07Z</time>
      </trkpt>
      <trkpt lat="43.69865" lon="3.82768">
        <ele>112.4</ele>
        <time>2022-01-16T13:02:17Z</time>
      </trkpt>
      <trkpt lat="43.69882" lon="3.82744">
        <ele>112.3</ele>
        <time>2022-01-16T13:02:27Z</time>
      </trkpt>
      <trkpt lat="43.69895" lon="3.82708">
        <ele>112.3</ele>
        <time>2022-01-16T13:02:37Z</time>
      </trkpt>
      <trkpt lat="43.69925" lon="3.82685">
        <ele>110.9</ele>
        <time>2022-01-16T13:02:47Z</time>
      </trkpt>
      <trkpt lat="43.69957" lon="3.82664">
        <ele>110.4</ele>
        <time>2022-01-16T13:02:57Z</time>
      </trkpt>
      <trkpt lat="43.69972" lon="3.82688">
        <ele>112.5</ele>
        <time>2022-01-16T13:03:07Z</time>
      </trkpt>
      <trkpt lat="43.69966" lon="3.82721">
        <ele>113.7</ele>
        <time>2022-01-16T13:03:17Z</time>
      </trkpt>
      <trkpt lat="43.69972" lon="3.82757">
        <ele>114.2</ele>
        <time>2022-01-16T13:03:27Z</time>
      </trkpt>
      <trkpt lat="43.6998" lon="3.82789">
        <ele>115.4</ele>
        <time>2022-01-16T13:03:37Z</time>
      </trkpt>
      <trkpt lat="43.69989" lon="3.82816">
        <ele>116.4</ele>
        <time>2022-01-16T13:03:47Z</time>
      </trkpt>
      <trkpt lat="43.70002" lon="3.82841">
        <ele>117.2</ele>
        <time>2022-01-16T13:03:57Z</time>
      </trkpt>
      <trkpt lat="43.70013" lon="3.82873">
        <ele>117.1</ele>
        <time>2022-01-16T13:04:07Z</time>
      </trkpt>
      <trkpt lat="43.7002" lon="3.82911">
        <ele>116.6</ele>
        <time>2022-01-16T13:04:17Z</time>
      </trkpt>
      <trkpt lat="43.70033" lon="3.82959">
        <ele>115.3</ele>
        <time>2022-01-16T13:04:27Z</time>
      </trkpt>
      <trkpt lat="43.70043" lon="3.83013">
        <ele>115</ele>
        <time>2022-01-16T13:04:37Z</time>
      </trkpt>
      <trkpt lat="43.70052" lon="3.83051">
        <ele>115</ele>
        <time>2022-01-16T13:04:47Z</time>
      </trkpt>
      <trkpt lat="43.70054" lon="3.83079">
        <ele>115.8</ele>
        <time>2022-01-16T13:04:57Z</time>
      </trkpt>
      <trkpt lat="43.7005" lon="3.83119">
        <ele>116.5</ele>
        <time>2022-01-16T13:05:07Z</time>
      </trkpt>
      <trkpt lat="43.70058" lon="3.83148">
        <ele>116.3</ele>
        <time>2022-01-16T13:05:17Z</time>
      </trkpt>
      <trkpt lat="43.70062" lon="3.83199">
        <ele>115.5</ele>
        <time>2022-01-16T13:05:27Z</time>
      </trkpt>
      <trkpt lat="43.70064" lon="3.83244">
        <ele>115.9</ele>
        <time>2022-01-16T13:05:37Z</time>
      </trkpt>
      <trkpt lat="43.70066" lon="3.83284">
        <ele>116</ele>
        <time>2022-01-16T13:05:47Z</time>
      </trkpt>
      <trkpt lat="43.70068" lon="3.83327">
        <ele>116</ele>
        <time>2022-01-16T13:05:57Z</time>
      </trkpt>
      <trkpt lat="43.70067" lon="3.83368">
        <ele>116.6</ele>
        <time>2022-01-16T13:06:07Z</time>
      </trkpt>
      <trkpt lat="43.70048" lon="3.83402">
        <ele>116.9</ele>
        <time>2022-01-16T13:06:17Z</time>
      </trkpt>
      <trkpt lat="43.70049" lon="3.83439">
        <ele>117.8</ele>
        <time>2022-01-16T13:06:27Z</time>
      </trkpt>
      <trkpt lat="43.70048" lon="3.8347">
        <ele>118.9</ele>
        <time>2022-01-16T13:06:37Z</time>
      </trkpt>
      <trkpt lat="43.70047" lon="3.83494">
        <ele>119.2</ele>
        <time>2022-01-16T13:06:47Z</time>
      </trkpt>
      <trkpt lat="43.70069" lon="3.83495">
        <ele>119</ele>
        <time>2022-01-16T13:09:07Z</time>
      </trkpt>
      <trkpt lat="43.70088" lon="3.8349">
        <ele>118.9</ele>
        <time>2022-01-16T13:09:27Z</time>
      </trkpt>
      <trkpt lat="43.70115" lon="3.83477">
        <ele>118.3</ele>
        <time>2022-01-16T13:09:37Z</time>
      </trkpt>
      <trkpt lat="43.70144" lon="3.83464">
        <ele>118.8</ele>
        <time>2022-01-16T13:09:47Z</time>
      </trkpt>
      <trkpt lat="43.70173" lon="3.83443">
        <ele>119</ele>
        <time>2022-01-16T13:09:57Z</time>
      </trkpt>
      <trkpt lat="43.70203" lon="3.8342">
        <ele>118.6</ele>
        <time>2022-01-16T13:10:07Z</time>
      </trkpt>
      <trkpt lat="43.70224" lon="3.83389">
        <ele>119.9</ele>
        <time>2022-01-16T13:10:17Z</time>
      </trkpt>
      <trkpt lat="43.70244" lon="3.83359">
        <ele>120.1</ele>
        <time>2022-01-16T13:10:27Z</time>
      </trkpt>
      <trkpt lat="43.70268" lon="3.83329">
        <ele>121.3</ele>
        <time>2022-01-16T13:10:37Z</time>
      </trkpt>
      <trkpt lat="43.70291" lon="3.8333">
        <ele>121.2</ele>
        <time>2022-01-16T13:10:47Z</time>
      </trkpt>
      <trkpt lat="43.70316" lon="3.83348">
        <ele>120.1</ele>
        <time>2022-01-16T13:10:57Z</time>
      </trkpt>
      <trkpt lat="43.70291" lon="3.83329">
        <ele>121.3</ele>
        <time>2022-01-16T13:11:07Z</time>
      </trkpt>
      <trkpt lat="43.70281" lon="3.83299">
        <ele>123</ele>
        <time>2022-01-16T13:11:27Z</time>
      </trkpt>
      <trkpt lat="43.70297" lon="3.83265">
        <ele>123.7</ele>
        <time>2022-01-16T13:11:37Z</time>
      </trkpt>
      <trkpt lat="43.70322" lon="3.83235">
        <ele>123.8</ele>
        <time>2022-01-16T13:11:47Z</time>
      </trkpt>
      <trkpt lat="43.70346" lon="3.832">
        <ele>123.1</ele>
        <time>2022-01-16T13:11:57Z</time>
      </trkpt>
      <trkpt lat="43.70329" lon="3.83152">
        <ele>120.8</ele>
        <time>2022-01-16T13:12:07Z</time>
      </trkpt>
      <trkpt lat="43.70335" lon="3.8309">
        <ele>117.3</ele>
        <time>2022-01-16T13:12:17Z</time>
      </trkpt>
      <trkpt lat="43.70336" lon="3.83">
        <ele>113</ele>
        <time>2022-01-16T13:12:27Z</time>
      </trkpt>
      <trkpt lat="43.70357" lon="3.82907">
        <ele>109.7</ele>
        <time>2022-01-16T13:12:37Z</time>
      </trkpt>
      <trkpt lat="43.70387" lon="3.82826">
        <ele>105.7</ele>
        <time>2022-01-16T13:12:47Z</time>
      </trkpt>
      <trkpt lat="43.7042" lon="3.82844">
        <ele>105.3</ele>
        <time>2022-01-16T13:12:57Z</time>
      </trkpt>
      <trkpt lat="43.70455" lon="3.82867">
        <ele>104.8</ele>
        <time>2022-01-16T13:13:07Z</time>
      </trkpt>
      <trkpt lat="43.70498" lon="3.8289">
        <ele>105</ele>
        <time>2022-01-16T13:13:17Z</time>
      </trkpt>
      <trkpt lat="43.70534" lon="3.82912">
        <ele>105.6</ele>
        <time>2022-01-16T13:13:27Z</time>
      </trkpt>
      <trkpt lat="43.70571" lon="3.82936">
        <ele>105.9</ele>
        <time>2022-01-16T13:13:37Z</time>
      </trkpt>
      <trkpt lat="43.7061" lon="3.82956">
        <ele>106.4</ele>
        <time>2022-01-16T13:13:47Z</time>
      </trkpt>
      <trkpt lat="43.70646" lon="3.82965">
        <ele>107.2</ele>
        <time>2022-01-16T13:13:57Z</time>
      </trkpt>
      <trkpt lat="43.70676" lon="3.82985">
        <ele>107.7</ele>
        <time>2022-01-16T13:14:07Z</time>
      </trkpt>
      <trkpt lat="43.70687" lon="3.83014">
        <ele>108.1</ele>
        <time>2022-01-16T13:14:17Z</time>
      </trkpt>
      <trkpt lat="43.70683" lon="3.83051">
        <ele>110.7</ele>
        <time>2022-01-16T13:14:27Z</time>
      </trkpt>
      <trkpt lat="43.7068" lon="3.83075">
        <ele>111.7</ele>
        <time>2022-01-16T13:14:37Z</time>
      </trkpt>
      <trkpt lat="43.70709" lon="3.8308">
        <ele>111.9</ele>
        <time>2022-01-16T13:14:47Z</time>
      </trkpt>
      <trkpt lat="43.70731" lon="3.83058">
        <ele>112.3</ele>
        <time>2022-01-16T13:14:57Z</time>
      </trkpt>
      <trkpt lat="43.70746" lon="3.83015">
        <ele>111.7</ele>
        <time>2022-01-16T13:15:07Z</time>
      </trkpt>
      <trkpt lat="43.70757" lon="3.82958">
        <ele>110</ele>
        <time>2022-01-16T13:15:17Z</time>
      </trkpt>
      <trkpt lat="43.7076" lon="3.82919">
        <ele>109.4</ele>
        <time>2022-01-16T13:15:27Z</time>
      </trkpt>
      <trkpt lat="43.70776" lon="3.82926">
        <ele>110.3</ele>
        <time>2022-01-16T13:15:37Z</time>
      </trkpt>
      <trkpt lat="43.70793" lon="3.82943">
        <ele>111</ele>
        <time>2022-01-16T13:15:47Z</time>
      </trkpt>
      <trkpt lat="43.70815" lon="3.82963">
        <ele>112.2</ele>
        <time>2022-01-16T13:15:57Z</time>
      </trkpt>
      <trkpt lat="43.70841" lon="3.82984">
        <ele>112.6</ele>
        <time>2022-01-16T13:16:07Z</time>
      </trkpt>
      <trkpt lat="43.70868" lon="3.83001">
        <ele>112.1</ele>
        <time>2022-01-16T13:16:17Z</time>
      </trkpt>
      <trkpt lat="43.70889" lon="3.83016">
        <ele>113.7</ele>
        <time>2022-01-16T13:16:27Z</time>
      </trkpt>
      <trkpt lat="43.70914" lon="3.83029">
        <ele>116.1</ele>
        <time>2022-01-16T13:16:37Z</time>
      </trkpt>
      <trkpt lat="43.70944" lon="3.83036">
        <ele>116.2</ele>
        <time>2022-01-16T13:16:47Z</time>
      </trkpt>
      <trkpt lat="43.70963" lon="3.83049">
        <ele>117.5</ele>
        <time>2022-01-16T13:16:57Z</time>
      </trkpt>
      <trkpt lat="43.70983" lon="3.83065">
        <ele>117.8</ele>
        <time>2022-01-16T13:17:17Z</time>
      </trkpt>
      <trkpt lat="43.71006" lon="3.83082">
        <ele>117.8</ele>
        <time>2022-01-16T13:17:37Z</time>
      </trkpt>
      <trkpt lat="43.71028" lon="3.83099">
        <ele>118.7</ele>
        <time>2022-01-16T13:17:47Z</time>
      </trkpt>
      <trkpt lat="43.71052" lon="3.83119">
        <ele>118.5</ele>
        <time>2022-01-16T13:17:57Z</time>
      </trkpt>
      <trkpt lat="43.71072" lon="3.8314">
        <ele>119.9</ele>
        <time>2022-01-16T13:18:07Z</time>
      </trkpt>
      <trkpt lat="43.71097" lon="3.83159">
        <ele>120.5</ele>
        <time>2022-01-16T13:18:17Z</time>
      </trkpt>
      <trkpt lat="43.7112" lon="3.83178">
        <ele>121.1</ele>
        <time>2022-01-16T13:18:27Z</time>
      </trkpt>
      <trkpt lat="43.71146" lon="3.832">
        <ele>122.5</ele>
        <time>2022-01-16T13:18:37Z</time>
      </trkpt>
      <trkpt lat="43.71171" lon="3.83219">
        <ele>124.1</ele>
        <time>2022-01-16T13:18:47Z</time>
      </trkpt>
      <trkpt lat="43.71211" lon="3.83229">
        <ele>121.6</ele>
        <time>2022-01-16T13:18:57Z</time>
      </trkpt>
      <trkpt lat="43.71246" lon="3.83247">
        <ele>118.7</ele>
        <time>2022-01-16T13:19:07Z</time>
      </trkpt>
      <trkpt lat="43.71278" lon="3.83271">
        <ele>117.7</ele>
        <time>2022-01-16T13:19:17Z</time>
      </trkpt>
      <trkpt lat="43.71303" lon="3.83274">
        <ele>115.4</ele>
        <time>2022-01-16T13:19:27Z</time>
      </trkpt>
      <trkpt lat="43.71312" lon="3.83283">
        <ele>115.1</ele>
        <time>2022-01-16T13:19:47Z</time>
      </trkpt>
      <trkpt lat="43.71332" lon="3.83258">
        <ele>113.4</ele>
        <time>2022-01-16T13:22:47Z</time>
      </trkpt>
      <trkpt lat="43.71344" lon="3.8322">
        <ele>113.6</ele>
        <time>2022-01-16T13:23:07Z</time>
      </trkpt>
      <trkpt lat="43.71365" lon="3.83221">
        <ele>112.5</ele>
        <time>2022-01-16T13:23:17Z</time>
      </trkpt>
      <trkpt lat="43.71388" lon="3.83223">
        <ele>110.1</ele>
        <time>2022-01-16T13:24:17Z</time>
      </trkpt>
      <trkpt lat="43.71415" lon="3.83225">
        <ele>107.4</ele>
        <time>2022-01-16T13:24:37Z</time>
      </trkpt>
      <trkpt lat="43.71433" lon="3.83226">
        <ele>107.8</ele>
        <time>2022-01-16T13:24:47Z</time>
      </trkpt>
      <trkpt lat="43.71454" lon="3.8323">
        <ele>108.4</ele>
        <time>2022-01-16T13:24:57Z</time>
      </trkpt>
      <trkpt lat="43.71476" lon="3.83218">
        <ele>107.7</ele>
        <time>2022-01-16T13:25:07Z</time>
      </trkpt>
      <trkpt lat="43.71501" lon="3.83226">
        <ele>108.3</ele>
        <time>2022-01-16T13:25:17Z</time>
      </trkpt>
      <trkpt lat="43.71529" lon="3.83227">
        <ele>108.4</ele>
        <time>2022-01-16T13:25:27Z</time>
      </trkpt>
      <trkpt lat="43.7155" lon="3.83229">
        <ele>109.9</ele>
        <time>2022-01-16T13:25:37Z</time>
      </trkpt>
      <trkpt lat="43.71568" lon="3.83245">
        <ele>111.9</ele>
        <time>2022-01-16T13:25:47Z</time>
      </trkpt>
      <trkpt lat="43.71586" lon="3.83253">
        <ele>113.2</ele>
        <time>2022-01-16T13:25:57Z</time>
      </trkpt>
      <trkpt lat="43.71605" lon="3.83267">
        <ele>113.9</ele>
        <time>2022-01-16T13:26:07Z</time>
      </trkpt>
      <trkpt lat="43.71623" lon="3.83293">
        <ele>112.8</ele>
        <time>2022-01-16T13:26:17Z</time>
      </trkpt>
      <trkpt lat="43.71633" lon="3.83328">
        <ele>113</ele>
        <time>2022-01-16T13:26:27Z</time>
      </trkpt>
      <trkpt lat="43.71645" lon="3.83356">
        <ele>113.6</ele>
        <time>2022-01-16T13:26:37Z</time>
      </trkpt>
      <trkpt lat="43.71655" lon="3.83382">
        <ele>114.2</ele>
        <time>2022-01-16T13:26:47Z</time>
      </trkpt>
      <trkpt lat="43.71672" lon="3.83403">
        <ele>114.5</ele>
        <time>2022-01-16T13:26:57Z</time>
      </trkpt>
      <trkpt lat="43.7169" lon="3.83424">
        <ele>114.8</ele>
        <time>2022-01-16T13:27:07Z</time>
      </trkpt>
      <trkpt lat="43.71708" lon="3.83447">
        <ele>114.3</ele>
        <time>2022-01-16T13:27:17Z</time>
      </trkpt>
      <trkpt lat="43.71728" lon="3.83464">
        <ele>114.1</ele>
        <time>2022-01-16T13:27:27Z</time>
      </trkpt>
      <trkpt lat="43.7175" lon="3.83478">
        <ele>114.6</ele>
        <time>2022-01-16T13:27:37Z</time>
      </trkpt>
      <trkpt lat="43.71775" lon="3.83496">
        <ele>114.3</ele>
        <time>2022-01-16T13:27:47Z</time>
      </trkpt>
      <trkpt lat="43.71798" lon="3.83518">
        <ele>115.5</ele>
        <time>2022-01-16T13:27:57Z</time>
      </trkpt>
      <trkpt lat="43.7182" lon="3.83539">
        <ele>116.9</ele>
        <time>2022-01-16T13:28:07Z</time>
      </trkpt>
      <trkpt lat="43.71847" lon="3.83566">
        <ele>115.3</ele>
        <time>2022-01-16T13:28:17Z</time>
      </trkpt>
      <trkpt lat="43.71883" lon="3.8359">
        <ele>113.1</ele>
        <time>2022-01-16T13:28:27Z</time>
      </trkpt>
      <trkpt lat="43.71909" lon="3.83618">
        <ele>112</ele>
        <time>2022-01-16T13:28:37Z</time>
      </trkpt>
      <trkpt lat="43.71935" lon="3.83657">
        <ele>112.2</ele>
        <time>2022-01-16T13:28:47Z</time>
      </trkpt>
      <trkpt lat="43.71953" lon="3.83691">
        <ele>113.7</ele>
        <time>2022-01-16T13:28:57Z</time>
      </trkpt>
      <trkpt lat="43.71966" lon="3.83714">
        <ele>113.7</ele>
        <time>2022-01-16T13:29:07Z</time>
      </trkpt>
      <trkpt lat="43.72002" lon="3.83739">
        <ele>111.2</ele>
        <time>2022-01-16T13:29:17Z</time>
      </trkpt>
      <trkpt lat="43.71992" lon="3.83771">
        <ele>106.6</ele>
        <time>2022-01-16T13:29:27Z</time>
      </trkpt>
      <trkpt lat="43.71944" lon="3.83816">
        <ele>103.8</ele>
        <time>2022-01-16T13:29:37Z</time>
      </trkpt>
      <trkpt lat="43.71905" lon="3.83793">
        <ele>101.4</ele>
        <time>2022-01-16T13:29:47Z</time>
      </trkpt>
      <trkpt lat="43.71912" lon="3.83735">
        <ele>102.8</ele>
        <time>2022-01-16T13:29:57Z</time>
      </trkpt>
      <trkpt lat="43.71897" lon="3.83689">
        <ele>103.6</ele>
        <time>2022-01-16T13:30:07Z</time>
      </trkpt>
      <trkpt lat="43.71877" lon="3.83655">
        <ele>105</ele>
        <time>2022-01-16T13:30:17Z</time>
      </trkpt>
      <trkpt lat="43.71848" lon="3.83664">
        <ele>104.7</ele>
        <time>2022-01-16T13:30:27Z</time>
      </trkpt>
      <trkpt lat="43.71864" lon="3.83656">
        <ele>104.6</ele>
        <time>2022-01-16T13:30:47Z</time>
      </trkpt>
      <trkpt lat="43.71849" lon="3.83665">
        <ele>104.5</ele>
        <time>2022-01-16T13:31:07Z</time>
      </trkpt>
      <trkpt lat="43.71824" lon="3.8368">
        <ele>104.9</ele>
        <time>2022-01-16T13:31:27Z</time>
      </trkpt>
      <trkpt lat="43.718" lon="3.83668">
        <ele>104.2</ele>
        <time>2022-01-16T13:31:47Z</time>
      </trkpt>
      <trkpt lat="43.71784" lon="3.83624">
        <ele>103.1</ele>
        <time>2022-01-16T13:31:57Z</time>
      </trkpt>
      <trkpt lat="43.71764" lon="3.83589">
        <ele>103.7</ele>
        <time>2022-01-16T13:32:07Z</time>
      </trkpt>
      <trkpt lat="43.71751" lon="3.83546">
        <ele>104</ele>
        <time>2022-01-16T13:32:17Z</time>
      </trkpt>
      <trkpt lat="43.71714" lon="3.83525">
        <ele>102.7</ele>
        <time>2022-01-16T13:32:27Z</time>
      </trkpt>
      <trkpt lat="43.71679" lon="3.83507">
        <ele>103.6</ele>
        <time>2022-01-16T13:32:37Z</time>
      </trkpt>
      <trkpt lat="43.71663" lon="3.8355">
        <ele>102.4</ele>
        <time>2022-01-16T13:32:47Z</time>
      </trkpt>
      <trkpt lat="43.71652" lon="3.83588">
        <ele>104</ele>
        <time>2022-01-16T13:32:57Z</time>
      </trkpt>
      <trkpt lat="43.71665" lon="3.83633">
        <ele>103.2</ele>
        <time>2022-01-16T13:33:07Z</time>
      </trkpt>
      <trkpt lat="43.71647" lon="3.83673">
        <ele>103.7</ele>
        <time>2022-01-16T13:33:17Z</time>
      </trkpt>
      <trkpt lat="43.71616" lon="3.83675">
        <ele>104.2</ele>
        <time>2022-01-16T13:33:27Z</time>
      </trkpt>
      <trkpt lat="43.71585" lon="3.83649">
        <ele>102.7</ele>
        <time>2022-01-16T13:33:37Z</time>
      </trkpt>
      <trkpt lat="43.71554" lon="3.83618">
        <ele>104.4</ele>
        <time>2022-01-16T13:33:47Z</time>
      </trkpt>
      <trkpt lat="43.7153" lon="3.83642">
        <ele>104.5</ele>
        <time>2022-01-16T13:33:57Z</time>
      </trkpt>
      <trkpt lat="43.7151" lon="3.8368">
        <ele>107.3</ele>
        <time>2022-01-16T13:34:07Z</time>
      </trkpt>
      <trkpt lat="43.71537" lon="3.83706">
        <ele>106.7</ele>
        <time>2022-01-16T13:34:17Z</time>
      </trkpt>
      <trkpt lat="43.71555" lon="3.83753">
        <ele>106.5</ele>
        <time>2022-01-16T13:34:27Z</time>
      </trkpt>
      <trkpt lat="43.71572" lon="3.83801">
        <ele>106.8</ele>
        <time>2022-01-16T13:34:37Z</time>
      </trkpt>
      <trkpt lat="43.71587" lon="3.83849">
        <ele>106.2</ele>
        <time>2022-01-16T13:34:47Z</time>
      </trkpt>
      <trkpt lat="43.716" lon="3.83897">
        <ele>107.7</ele>
        <time>2022-01-16T13:34:57Z</time>
      </trkpt>
      <trkpt lat="43.71635" lon="3.83911">
        <ele>107.3</ele>
        <time>2022-01-16T13:35:07Z</time>
      </trkpt>
      <trkpt lat="43.71658" lon="3.83952">
        <ele>106.3</ele>
        <time>2022-01-16T13:35:17Z</time>
      </trkpt>
      <trkpt lat="43.7165" lon="3.84">
        <ele>108.4</ele>
        <time>2022-01-16T13:38:57Z</time>
      </trkpt>
      <trkpt lat="43.71668" lon="3.84029">
        <ele>108.7</ele>
        <time>2022-01-16T13:39:17Z</time>
      </trkpt>
      <trkpt lat="43.71679" lon="3.84069">
        <ele>107.2</ele>
        <time>2022-01-16T13:39:27Z</time>
      </trkpt>
      <trkpt lat="43.71665" lon="3.84108">
        <ele>106</ele>
        <time>2022-01-16T13:39:37Z</time>
      </trkpt>
      <trkpt lat="43.71639" lon="3.84144">
        <ele>106.6</ele>
        <time>2022-01-16T13:39:47Z</time>
      </trkpt>
      <trkpt lat="43.71621" lon="3.84187">
        <ele>105.3</ele>
        <time>2022-01-16T13:39:57Z</time>
      </trkpt>
      <trkpt lat="43.71582" lon="3.84195">
        <ele>104.6</ele>
        <time>2022-01-16T13:40:07Z</time>
      </trkpt>
      <trkpt lat="43.71552" lon="3.84164">
        <ele>104.6</ele>
        <time>2022-01-16T13:40:17Z</time>
      </trkpt>
      <trkpt lat="43.71521" lon="3.84135">
        <ele>105</ele>
        <time>2022-01-16T13:40:27Z</time>
      </trkpt>
      <trkpt lat="43.71508" lon="3.84089">
        <ele>105.7</ele>
        <time>2022-01-16T13:40:37Z</time>
      </trkpt>
      <trkpt lat="43.71479" lon="3.84071">
        <ele>106.2</ele>
        <time>2022-01-16T13:40:47Z</time>
      </trkpt>
      <trkpt lat="43.71445" lon="3.84082">
        <ele>106.1</ele>
        <time>2022-01-16T13:40:57Z</time>
      </trkpt>
      <trkpt lat="43.71425" lon="3.84046">
        <ele>106.8</ele>
        <time>2022-01-16T13:41:07Z</time>
      </trkpt>
      <trkpt lat="43.71417" lon="3.84002">
        <ele>107</ele>
        <time>2022-01-16T13:41:17Z</time>
      </trkpt>
      <trkpt lat="43.71407" lon="3.83946">
        <ele>105</ele>
        <time>2022-01-16T13:41:27Z</time>
      </trkpt>
      <trkpt lat="43.71386" lon="3.83887">
        <ele>106.8</ele>
        <time>2022-01-16T13:41:37Z</time>
      </trkpt>
      <trkpt lat="43.7136" lon="3.83836">
        <ele>107.8</ele>
        <time>2022-01-16T13:41:47Z</time>
      </trkpt>
      <trkpt lat="43.71361" lon="3.83805">
        <ele>110</ele>
        <time>2022-01-16T13:41:57Z</time>
      </trkpt>
      <trkpt lat="43.71338" lon="3.83788">
        <ele>112.1</ele>
        <time>2022-01-16T13:42:17Z</time>
      </trkpt>
      <trkpt lat="43.71322" lon="3.83792">
        <ele>113.6</ele>
        <time>2022-01-16T13:42:27Z</time>
      </trkpt>
      <trkpt lat="43.71306" lon="3.83793">
        <ele>115.8</ele>
        <time>2022-01-16T13:42:37Z</time>
      </trkpt>
      <trkpt lat="43.71286" lon="3.83785">
        <ele>116.7</ele>
        <time>2022-01-16T13:42:47Z</time>
      </trkpt>
      <trkpt lat="43.71267" lon="3.83789">
        <ele>116.8</ele>
        <time>2022-01-16T13:42:57Z</time>
      </trkpt>
      <trkpt lat="43.71249" lon="3.83779">
        <ele>117.9</ele>
        <time>2022-01-16T13:43:07Z</time>
      </trkpt>
      <trkpt lat="43.71232" lon="3.83779">
        <ele>118.6</ele>
        <time>2022-01-16T13:43:17Z</time>
      </trkpt>
      <trkpt lat="43.71217" lon="3.8381">
        <ele>117.3</ele>
        <time>2022-01-16T13:43:27Z</time>
      </trkpt>
      <trkpt lat="43.71196" lon="3.83818">
        <ele>115.3</ele>
        <time>2022-01-16T13:43:47Z</time>
      </trkpt>
      <trkpt lat="43.71171" lon="3.83804">
        <ele>113</ele>
        <time>2022-01-16T13:44:07Z</time>
      </trkpt>
      <trkpt lat="43.71151" lon="3.83764">
        <ele>112.3</ele>
        <time>2022-01-16T13:44:17Z</time>
      </trkpt>
      <trkpt lat="43.71118" lon="3.83755">
        <ele>110.3</ele>
        <time>2022-01-16T13:44:27Z</time>
      </trkpt>
      <trkpt lat="43.71091" lon="3.83759">
        <ele>110</ele>
        <time>2022-01-16T13:44:37Z</time>
      </trkpt>
      <trkpt lat="43.71064" lon="3.83743">
        <ele>111.5</ele>
        <time>2022-01-16T13:44:47Z</time>
      </trkpt>
      <trkpt lat="43.71046" lon="3.83708">
        <ele>113</ele>
        <time>2022-01-16T13:44:57Z</time>
      </trkpt>
      <trkpt lat="43.71019" lon="3.83686">
        <ele>112.8</ele>
        <time>2022-01-16T13:45:07Z</time>
      </trkpt>
      <trkpt lat="43.70983" lon="3.83685">
        <ele>114.6</ele>
        <time>2022-01-16T13:45:17Z</time>
      </trkpt>
      <trkpt lat="43.7097" lon="3.83708">
        <ele>115.7</ele>
        <time>2022-01-16T13:45:27Z</time>
      </trkpt>
      <trkpt lat="43.70956" lon="3.83719">
        <ele>117.2</ele>
        <time>2022-01-16T13:45:37Z</time>
      </trkpt>
      <trkpt lat="43.70944" lon="3.83728">
        <ele>117.4</ele>
        <time>2022-01-16T13:45:47Z</time>
      </trkpt>
      <trkpt lat="43.70919" lon="3.83757">
        <ele>117.3</ele>
        <time>2022-01-16T13:45:57Z</time>
      </trkpt>
      <trkpt lat="43.70907" lon="3.83756">
        <ele>118</ele>
        <time>2022-01-16T13:46:07Z</time>
      </trkpt>
      <trkpt lat="43.70915" lon="3.8376">
        <ele>117.4</ele>
        <time>2022-01-16T13:46:27Z</time>
      </trkpt>
      <trkpt lat="43.70908" lon="3.83776">
        <ele>116.7</ele>
        <time>2022-01-16T13:46:37Z</time>
      </trkpt>
      <trkpt lat="43.70882" lon="3.83775">
        <ele>118.1</ele>
        <time>2022-01-16T13:46:47Z</time>
      </trkpt>
      <trkpt lat="43.70874" lon="3.83747">
        <ele>119.1</ele>
        <time>2022-01-16T13:46:57Z</time>
      </trkpt>
      <trkpt lat="43.70883" lon="3.83718">
        <ele>119.8</ele>
        <time>2022-01-16T13:47:07Z</time>
      </trkpt>
      <trkpt lat="43.70885" lon="3.83695">
        <ele>121.9</ele>
        <time>2022-01-16T13:47:17Z</time>
      </trkpt>
      <trkpt lat="43.70879" lon="3.83666">
        <ele>124</ele>
        <time>2022-01-16T13:47:27Z</time>
      </trkpt>
      <trkpt lat="43.70869" lon="3.83636">
        <ele>125.1</ele>
        <time>2022-01-16T13:47:37Z</time>
      </trkpt>
      <trkpt lat="43.70856" lon="3.83601">
        <ele>125.6</ele>
        <time>2022-01-16T13:47:47Z</time>
      </trkpt>
      <trkpt lat="43.70856" lon="3.83581">
        <ele>126.6</ele>
        <time>2022-01-16T13:47:57Z</time>
      </trkpt>
      <trkpt lat="43.7087" lon="3.83576">
        <ele>127.7</ele>
        <time>2022-01-16T13:48:07Z</time>
      </trkpt>
      <trkpt lat="43.70882" lon="3.83569">
        <ele>128.9</ele>
        <time>2022-01-16T13:48:17Z</time>
      </trkpt>
      <trkpt lat="43.70891" lon="3.83556">
        <ele>130</ele>
        <time>2022-01-16T13:48:27Z</time>
      </trkpt>
      <trkpt lat="43.70892" lon="3.83533">
        <ele>130.1</ele>
        <time>2022-01-16T13:48:37Z</time>
      </trkpt>
      <trkpt lat="43.70899" lon="3.83523">
        <ele>130.1</ele>
        <time>2022-01-16T13:48:47Z</time>
      </trkpt>
      <trkpt lat="43.70902" lon="3.83489">
        <ele>128.2</ele>
        <time>2022-01-16T13:48:57Z</time>
      </trkpt>
      <trkpt lat="43.70883" lon="3.8344">
        <ele>124.5</ele>
        <time>2022-01-16T13:49:07Z</time>
      </trkpt>
      <trkpt lat="43.70866" lon="3.83401">
        <ele>122.5</ele>
        <time>2022-01-16T13:49:17Z</time>
      </trkpt>
      <trkpt lat="43.70862" lon="3.8337">
        <ele>120.8</ele>
        <time>2022-01-16T13:49:27Z</time>
      </trkpt>
      <trkpt lat="43.70853" lon="3.83357">
        <ele>120</ele>
        <time>2022-01-16T13:49:37Z</time>
      </trkpt>
      <trkpt lat="43.70858" lon="3.8334">
        <ele>119.9</ele>
        <time>2022-01-16T13:49:47Z</time>
      </trkpt>
      <trkpt lat="43.70856" lon="3.83313">
        <ele>119.4</ele>
        <time>2022-01-16T13:49:57Z</time>
      </trkpt>
      <trkpt lat="43.70856" lon="3.83291">
        <ele>119.3</ele>
        <time>2022-01-16T13:58:47Z</time>
      </trkpt>
      <trkpt lat="43.70861" lon="3.83275">
        <ele>120</ele>
        <time>2022-01-16T13:59:07Z</time>
      </trkpt>
      <trkpt lat="43.70873" lon="3.8325">
        <ele>120.9</ele>
        <time>2022-01-16T13:59:17Z</time>
      </trkpt>
      <trkpt lat="43.70885" lon="3.83217">
        <ele>119.7</ele>
        <time>2022-01-16T13:59:37Z</time>
      </trkpt>
      <trkpt lat="43.70906" lon="3.83193">
        <ele>119.6</ele>
        <time>2022-01-16T13:59:47Z</time>
      </trkpt>
      <trkpt lat="43.70916" lon="3.83164">
        <ele>120</ele>
        <time>2022-01-16T13:59:57Z</time>
      </trkpt>
      <trkpt lat="43.70888" lon="3.83156">
        <ele>119.4</ele>
        <time>2022-01-16T14:00:07Z</time>
      </trkpt>
      <trkpt lat="43.70846" lon="3.83154">
        <ele>117.4</ele>
        <time>2022-01-16T14:00:17Z</time>
      </trkpt>
      <trkpt lat="43.70795" lon="3.83134">
        <ele>114.4</ele>
        <time>2022-01-16T14:00:27Z</time>
      </trkpt>
      <trkpt lat="43.70741" lon="3.83092">
        <ele>112.8</ele>
        <time>2022-01-16T14:00:37Z</time>
      </trkpt>
      <trkpt lat="43.70746" lon="3.83012">
        <ele>111.5</ele>
        <time>2022-01-16T14:00:47Z</time>
      </trkpt>
      <trkpt lat="43.70756" lon="3.82929">
        <ele>109.3</ele>
        <time>2022-01-16T14:00:57Z</time>
      </trkpt>
      <trkpt lat="43.70748" lon="3.8285">
        <ele>107.9</ele>
        <time>2022-01-16T14:01:07Z</time>
      </trkpt>
      <trkpt lat="43.70733" lon="3.82778">
        <ele>106.8</ele>
        <time>2022-01-16T14:01:17Z</time>
      </trkpt>
      <trkpt lat="43.70713" lon="3.82711">
        <ele>105.6</ele>
        <time>2022-01-16T14:01:27Z</time>
      </trkpt>
      <trkpt lat="43.7069" lon="3.82651">
        <ele>104.2</ele>
        <time>2022-01-16T14:01:37Z</time>
      </trkpt>
      <trkpt lat="43.70667" lon="3.82593">
        <ele>102</ele>
        <time>2022-01-16T14:01:47Z</time>
      </trkpt>
      <trkpt lat="43.70645" lon="3.8252">
        <ele>100.7</ele>
        <time>2022-01-16T14:01:57Z</time>
      </trkpt>
      <trkpt lat="43.70662" lon="3.82441">
        <ele>99</ele>
        <time>2022-01-16T14:02:07Z</time>
      </trkpt>
      <trkpt lat="43.70709" lon="3.82401">
        <ele>99.2</ele>
        <time>2022-01-16T14:02:17Z</time>
      </trkpt>
      <trkpt lat="43.70709" lon="3.82362">
        <ele>99</ele>
        <time>2022-01-16T14:02:27Z</time>
      </trkpt>
      <trkpt lat="43.70697" lon="3.8234">
        <ele>98.2</ele>
        <time>2022-01-16T14:02:57Z</time>
      </trkpt>
      <trkpt lat="43.70667" lon="3.8231">
        <ele>98.1</ele>
        <time>2022-01-16T14:03:17Z</time>
      </trkpt>
      <trkpt lat="43.70637" lon="3.82268">
        <ele>98.3</ele>
        <time>2022-01-16T14:03:27Z</time>
      </trkpt>
      <trkpt lat="43.70602" lon="3.82241">
        <ele>99.3</ele>
        <time>2022-01-16T14:03:37Z</time>
      </trkpt>
      <trkpt lat="43.70567" lon="3.82217">
        <ele>100.7</ele>
        <time>2022-01-16T14:03:47Z</time>
      </trkpt>
      <trkpt lat="43.7054" lon="3.82193">
        <ele>101.6</ele>
        <time>2022-01-16T14:03:57Z</time>
      </trkpt>
      <trkpt lat="43.70514" lon="3.82169">
        <ele>103</ele>
        <time>2022-01-16T14:04:07Z</time>
      </trkpt>
      <trkpt lat="43.70488" lon="3.82145">
        <ele>103.8</ele>
        <time>2022-01-16T14:04:17Z</time>
      </trkpt>
      <trkpt lat="43.70461" lon="3.8212">
        <ele>104.3</ele>
        <time>2022-01-16T14:04:27Z</time>
      </trkpt>
      <trkpt lat="43.70432" lon="3.82101">
        <ele>104.7</ele>
        <time>2022-01-16T14:04:37Z</time>
      </trkpt>
      <trkpt lat="43.70402" lon="3.82089">
        <ele>104.8</ele>
        <time>2022-01-16T14:04:47Z</time>
      </trkpt>
      <trkpt lat="43.7037" lon="3.82077">
        <ele>105.5</ele>
        <time>2022-01-16T14:04:57Z</time>
      </trkpt>
      <trkpt lat="43.70341" lon="3.82064">
        <ele>105.9</ele>
        <time>2022-01-16T14:05:07Z</time>
      </trkpt>
      <trkpt lat="43.70315" lon="3.82036">
        <ele>106.5</ele>
        <time>2022-01-16T14:05:17Z</time>
      </trkpt>
      <trkpt lat="43.70289" lon="3.82007">
        <ele>107.2</ele>
        <time>2022-01-16T14:05:27Z</time>
      </trkpt>
      <trkpt lat="43.70265" lon="3.81982">
        <ele>109.5</ele>
        <time>2022-01-16T14:05:37Z</time>
      </trkpt>
      <trkpt lat="43.70245" lon="3.8195">
        <ele>109.5</ele>
        <time>2022-01-16T14:05:47Z</time>
      </trkpt>
      <trkpt lat="43.7023" lon="3.81918">
        <ele>110.5</ele>
        <time>2022-01-16T14:05:57Z</time>
      </trkpt>
      <trkpt lat="43.70217" lon="3.81887">
        <ele>111.2</ele>
        <time>2022-01-16T14:06:07Z</time>
      </trkpt>
      <trkpt lat="43.70204" lon="3.81859">
        <ele>112.8</ele>
        <time>2022-01-16T14:06:17Z</time>
      </trkpt>
      <trkpt lat="43.70192" lon="3.8183">
        <ele>113.3</ele>
        <time>2022-01-16T14:06:27Z</time>
      </trkpt>
      <trkpt lat="43.70179" lon="3.81803">
        <ele>115</ele>
        <time>2022-01-16T14:06:37Z</time>
      </trkpt>
      <trkpt lat="43.70167" lon="3.81774">
        <ele>115.4</ele>
        <time>2022-01-16T14:06:47Z</time>
      </trkpt>
      <trkpt lat="43.70153" lon="3.81745">
        <ele>117.5</ele>
        <time>2022-01-16T14:06:57Z</time>
      </trkpt>
      <trkpt lat="43.70139" lon="3.81715">
        <ele>118.5</ele>
        <time>2022-01-16T14:07:07Z</time>
      </trkpt>
      <trkpt lat="43.70126" lon="3.81686">
        <ele>119.4</ele>
        <time>2022-01-16T14:07:17Z</time>
      </trkpt>
      <trkpt lat="43.70112" lon="3.81654">
        <ele>120.1</ele>
        <time>2022-01-16T14:07:27Z</time>
      </trkpt>
      <trkpt lat="43.70097" lon="3.81622">
        <ele>121.1</ele>
        <time>2022-01-16T14:07:37Z</time>
      </trkpt>
      <trkpt lat="43.70085" lon="3.81582">
        <ele>118.5</ele>
        <time>2022-01-16T14:07:47Z</time>
      </trkpt>
      <trkpt lat="43.70067" lon="3.8153">
        <ele>117.6</ele>
        <time>2022-01-16T14:07:57Z</time>
      </trkpt>
      <trkpt lat="43.70029" lon="3.81512">
        <ele>120.2</ele>
        <time>2022-01-16T14:08:07Z</time>
      </trkpt>
      <trkpt lat="43.69992" lon="3.81496">
        <ele>121.6</ele>
        <time>2022-01-16T14:08:17Z</time>
      </trkpt>
      <trkpt lat="43.69972" lon="3.81464">
        <ele>123.6</ele>
        <time>2022-01-16T14:08:27Z</time>
      </trkpt>
      <trkpt lat="43.69959" lon="3.81427">
        <ele>125.7</ele>
        <time>2022-01-16T14:08:37Z</time>
      </trkpt>
      <trkpt lat="43.69953" lon="3.81387">
        <ele>125.9</ele>
        <time>2022-01-16T14:08:47Z</time>
      </trkpt>
      <trkpt lat="43.69937" lon="3.81355">
        <ele>124.7</ele>
        <time>2022-01-16T14:08:57Z</time>
      </trkpt>
      <trkpt lat="43.69893" lon="3.81354">
        <ele>122.7</ele>
        <time>2022-01-16T14:09:07Z</time>
      </trkpt>
      <trkpt lat="43.69856" lon="3.8135">
        <ele>123</ele>
        <time>2022-01-16T14:09:17Z</time>
      </trkpt>
      <trkpt lat="43.69843" lon="3.81335">
        <ele>122.8</ele>
        <time>2022-01-16T14:09:27Z</time>
      </trkpt>
      <trkpt lat="43.69816" lon="3.81317">
        <ele>122.6</ele>
        <time>2022-01-16T14:09:37Z</time>
      </trkpt>
      <trkpt lat="43.69802" lon="3.81293">
        <ele>121.1</ele>
        <time>2022-01-16T14:09:47Z</time>
      </trkpt>
      <trkpt lat="43.6979" lon="3.81249">
        <ele>119</ele>
        <time>2022-01-16T14:09:57Z</time>
      </trkpt>
      <trkpt lat="43.69768" lon="3.81175">
        <ele>115.3</ele>
        <time>2022-01-16T14:10:07Z</time>
      </trkpt>
      <trkpt lat="43.69732" lon="3.81145">
        <ele>113.8</ele>
        <time>2022-01-16T14:10:17Z</time>
      </trkpt>
      <trkpt lat="43.69688" lon="3.81157">
        <ele>112.9</ele>
        <time>2022-01-16T14:10:27Z</time>
      </trkpt>
      <trkpt lat="43.69649" lon="3.81174">
        <ele>112.4</ele>
        <time>2022-01-16T14:10:37Z</time>
      </trkpt>
      <trkpt lat="43.69614" lon="3.81193">
        <ele>112.1</ele>
        <time>2022-01-16T14:10:47Z</time>
      </trkpt>
      <trkpt lat="43.69585" lon="3.81189">
        <ele>112.8</ele>
        <time>2022-01-16T14:10:57Z</time>
      </trkpt>
      <trkpt lat="43.6954" lon="3.81152">
        <ele>111.5</ele>
        <time>2022-01-16T14:11:07Z</time>
      </trkpt>
      <trkpt lat="43.69505" lon="3.81116">
        <ele>110.7</ele>
        <time>2022-01-16T14:11:17Z</time>
      </trkpt>
      <trkpt lat="43.69469" lon="3.81063">
        <ele>109.3</ele>
        <time>2022-01-16T14:11:27Z</time>
      </trkpt>
      <trkpt lat="43.69414" lon="3.81056">
        <ele>108</ele>
        <time>2022-01-16T14:11:37Z</time>
      </trkpt>
      <trkpt lat="43.69363" lon="3.81052">
        <ele>107.1</ele>
        <time>2022-01-16T14:11:47Z</time>
      </trkpt>
      <trkpt lat="43.69319" lon="3.81064">
        <ele>106.9</ele>
        <time>2022-01-16T14:11:57Z</time>
      </trkpt>
      <trkpt lat="43.69278" lon="3.81077">
        <ele>106.2</ele>
        <time>2022-01-16T14:12:07Z</time>
      </trkpt>
      <trkpt lat="43.69226" lon="3.81099">
        <ele>106.6</ele>
        <time>2022-01-16T14:12:17Z</time>
      </trkpt>
      <trkpt lat="43.69181" lon="3.81114">
        <ele>105.3</ele>
        <time>2022-01-16T14:12:27Z</time>
      </trkpt>
      <trkpt lat="43.69146" lon="3.8113">
        <ele>106.1</ele>
        <time>2022-01-16T14:12:37Z</time>
      </trkpt>
      <trkpt lat="43.69143" lon="3.8109">
        <ele>106.3</ele>
        <time>2022-01-16T14:12:47Z</time>
      </trkpt>
      <trkpt lat="43.69093" lon="3.81072">
        <ele>104.6</ele>
        <time>2022-01-16T14:12:57Z</time>
      </trkpt>
      <trkpt lat="43.69043" lon="3.81064">
        <ele>103.9</ele>
        <time>2022-01-16T14:13:17Z</time>
      </trkpt>
      <trkpt lat="43.68998" lon="3.81035">
        <ele>103.4</ele>
        <time>2022-01-16T14:13:27Z</time>
      </trkpt>
      <trkpt lat="43.68967" lon="3.81021">
        <ele>101.9</ele>
        <time>2022-01-16T14:13:37Z</time>
      </trkpt>
      <trkpt lat="43.68956" lon="3.81025">
        <ele>101.5</ele>
        <time>2022-01-16T14:13:47Z</time>
      </trkpt>
      <trkpt lat="43.68947" lon="3.81029">
        <ele>101.2</ele>
        <time>2022-01-16T14:14:17Z</time>
      </trkpt>
      <trkpt lat="43.6892" lon="3.81039">
        <ele>101.3</ele>
        <time>2022-01-16T14:14:37Z</time>
      </trkpt>
      <trkpt lat="43.68895" lon="3.81052">
        <ele>101.5</ele>
        <time>2022-01-16T14:14:47Z</time>
      </trkpt>
      <trkpt lat="43.68863" lon="3.81078">
        <ele>100.2</ele>
        <time>2022-01-16T14:14:57Z</time>
      </trkpt>
      <trkpt lat="43.6883" lon="3.81096">
        <ele>102</ele>
        <time>2022-01-16T14:15:07Z</time>
      </trkpt>
      <trkpt lat="43.68784" lon="3.81095">
        <ele>100.9</ele>
        <time>2022-01-16T14:15:17Z</time>
      </trkpt>
      <trkpt lat="43.68747" lon="3.81086">
        <ele>98.5</ele>
        <time>2022-01-16T14:15:27Z</time>
      </trkpt>
      <trkpt lat="43.68708" lon="3.81087">
        <ele>98.9</ele>
        <time>2022-01-16T14:15:37Z</time>
      </trkpt>
      <trkpt lat="43.68676" lon="3.81111">
        <ele>98</ele>
        <time>2022-01-16T14:15:47Z</time>
      </trkpt>
      <trkpt lat="43.6865" lon="3.8115">
        <ele>100</ele>
        <time>2022-01-16T14:15:57Z</time>
      </trkpt>
      <trkpt lat="43.68619" lon="3.81167">
        <ele>100.6</ele>
        <time>2022-01-16T14:16:07Z</time>
      </trkpt>
      <trkpt lat="43.68581" lon="3.81174">
        <ele>99.9</ele>
        <time>2022-01-16T14:16:17Z</time>
      </trkpt>
      <trkpt lat="43.68547" lon="3.81173">
        <ele>100.9</ele>
        <time>2022-01-16T14:16:27Z</time>
      </trkpt>
      <trkpt lat="43.68512" lon="3.8116">
        <ele>100.9</ele>
        <time>2022-01-16T14:16:37Z</time>
      </trkpt>
      <trkpt lat="43.68483" lon="3.81156">
        <ele>102.4</ele>
        <time>2022-01-16T14:16:47Z</time>
      </trkpt>
      <trkpt lat="43.68455" lon="3.81147">
        <ele>104.2</ele>
        <time>2022-01-16T14:16:57Z</time>
      </trkpt>
      <trkpt lat="43.68437" lon="3.81125">
        <ele>102.1</ele>
        <time>2022-01-16T14:17:07Z</time>
      </trkpt>
      <trkpt lat="43.68425" lon="3.81094">
        <ele>102</ele>
        <time>2022-01-16T14:17:17Z</time>
      </trkpt>
      <trkpt lat="43.68418" lon="3.81071">
        <ele>101.4</ele>
        <time>2022-01-16T14:17:27Z</time>
      </trkpt>
      <trkpt lat="43.6841" lon="3.81035">
        <ele>98.7</ele>
        <time>2022-01-16T14:17:37Z</time>
      </trkpt>
      <trkpt lat="43.6841" lon="3.80993">
        <ele>95.6</ele>
        <time>2022-01-16T14:17:47Z</time>
      </trkpt>
      <trkpt lat="43.68404" lon="3.80962">
        <ele>95</ele>
        <time>2022-01-16T14:17:57Z</time>
      </trkpt>
      <trkpt lat="43.68371" lon="3.8096">
        <ele>97.3</ele>
        <time>2022-01-16T14:18:07Z</time>
      </trkpt>
      <trkpt lat="43.68338" lon="3.80959">
        <ele>99.2</ele>
        <time>2022-01-16T14:18:17Z</time>
      </trkpt>
      <trkpt lat="43.68308" lon="3.80968">
        <ele>99.9</ele>
        <time>2022-01-16T14:18:27Z</time>
      </trkpt>
      <trkpt lat="43.68283" lon="3.80983">
        <ele>100.8</ele>
        <time>2022-01-16T14:18:37Z</time>
      </trkpt>
      <trkpt lat="43.68257" lon="3.81002">
        <ele>102.1</ele>
        <time>2022-01-16T14:18:47Z</time>
      </trkpt>
      <trkpt lat="43.68232" lon="3.8102">
        <ele>103.2</ele>
        <time>2022-01-16T14:18:57Z</time>
      </trkpt>
      <trkpt lat="43.68207" lon="3.81038">
        <ele>103.9</ele>
        <time>2022-01-16T14:19:07Z</time>
      </trkpt>
      <trkpt lat="43.68186" lon="3.81061">
        <ele>104.1</ele>
        <time>2022-01-16T14:19:17Z</time>
      </trkpt>
      <trkpt lat="43.6816" lon="3.81072">
        <ele>103.8</ele>
        <time>2022-01-16T14:19:27Z</time>
      </trkpt>
      <trkpt lat="43.68128" lon="3.81098">
        <ele>103</ele>
        <time>2022-01-16T14:19:37Z</time>
      </trkpt>
      <trkpt lat="43.68094" lon="3.81122">
        <ele>103.4</ele>
        <time>2022-01-16T14:19:47Z</time>
      </trkpt>
      <trkpt lat="43.68062" lon="3.81147">
        <ele>104.4</ele>
        <time>2022-01-16T14:19:57Z</time>
      </trkpt>
      <trkpt lat="43.68033" lon="3.81178">
        <ele>105.3</ele>
        <time>2022-01-16T14:20:07Z</time>
      </trkpt>
      <trkpt lat="43.6801" lon="3.81215">
        <ele>106</ele>
        <time>2022-01-16T14:20:17Z</time>
      </trkpt>
      <trkpt lat="43.67991" lon="3.81245">
        <ele>108</ele>
        <time>2022-01-16T14:20:27Z</time>
      </trkpt>
      <trkpt lat="43.67981" lon="3.81276">
        <ele>109.5</ele>
        <time>2022-01-16T14:20:37Z</time>
      </trkpt>
      <trkpt lat="43.67965" lon="3.81313">
        <ele>110.7</ele>
        <time>2022-01-16T14:20:47Z</time>
      </trkpt>
      <trkpt lat="43.67953" lon="3.81351">
        <ele>111.4</ele>
        <time>2022-01-16T14:20:57Z</time>
      </trkpt>
      <trkpt lat="43.67943" lon="3.81385">
        <ele>111.9</ele>
        <time>2022-01-16T14:21:07Z</time>
      </trkpt>
      <trkpt lat="43.67942" lon="3.81416">
        <ele>113</ele>
        <time>2022-01-16T14:21:17Z</time>
      </trkpt>
      <trkpt lat="43.67934" lon="3.81443">
        <ele>114.5</ele>
        <time>2022-01-16T14:21:27Z</time>
      </trkpt>
      <trkpt lat="43.67929" lon="3.81474">
        <ele>115.5</ele>
        <time>2022-01-16T14:21:37Z</time>
      </trkpt>
      <trkpt lat="43.67922" lon="3.81507">
        <ele>116.5</ele>
        <time>2022-01-16T14:21:47Z</time>
      </trkpt>
      <trkpt lat="43.67913" lon="3.81538">
        <ele>117.5</ele>
        <time>2022-01-16T14:21:57Z</time>
      </trkpt>
      <trkpt lat="43.67916" lon="3.81572">
        <ele>119.2</ele>
        <time>2022-01-16T14:22:07Z</time>
      </trkpt>
      <trkpt lat="43.67912" lon="3.81607">
        <ele>119.8</ele>
        <time>2022-01-16T14:22:17Z</time>
      </trkpt>
      <trkpt lat="43.67884" lon="3.81617">
        <ele>119</ele>
        <time>2022-01-16T14:22:27Z</time>
      </trkpt>
      <trkpt lat="43.67848" lon="3.81632">
        <ele>118.5</ele>
        <time>2022-01-16T14:22:37Z</time>
      </trkpt>
      <trkpt lat="43.67812" lon="3.81656">
        <ele>117.2</ele>
        <time>2022-01-16T14:22:47Z</time>
      </trkpt>
      <trkpt lat="43.67772" lon="3.81683">
        <ele>114.9</ele>
        <time>2022-01-16T14:22:57Z</time>
      </trkpt>
      <trkpt lat="43.67732" lon="3.8171">
        <ele>114.6</ele>
        <time>2022-01-16T14:23:07Z</time>
      </trkpt>
      <trkpt lat="43.677" lon="3.81732">
        <ele>114.6</ele>
        <time>2022-01-16T14:23:17Z</time>
      </trkpt>
      <trkpt lat="43.67669" lon="3.81755">
        <ele>115.7</ele>
        <time>2022-01-16T14:23:27Z</time>
      </trkpt>
      <trkpt lat="43.6764" lon="3.81778">
        <ele>116</ele>
        <time>2022-01-16T14:23:37Z</time>
      </trkpt>
      <trkpt lat="43.67622" lon="3.81752">
        <ele>116.6</ele>
        <time>2022-01-16T14:23:47Z</time>
      </trkpt>
      <trkpt lat="43.67597" lon="3.81731">
        <ele>117.7</ele>
        <time>2022-01-16T14:23:57Z</time>
      </trkpt>
      <trkpt lat="43.67574" lon="3.81713">
        <ele>118</ele>
        <time>2022-01-16T14:24:07Z</time>
      </trkpt>
      <trkpt lat="43.6755" lon="3.81703">
        <ele>117.6</ele>
        <time>2022-01-16T14:24:17Z</time>
      </trkpt>
      <trkpt lat="43.6752" lon="3.81697">
        <ele>116.7</ele>
        <time>2022-01-16T14:24:27Z</time>
      </trkpt>
      <trkpt lat="43.67479" lon="3.81702">
        <ele>114.4</ele>
        <time>2022-01-16T14:24:37Z</time>
      </trkpt>
      <trkpt lat="43.67427" lon="3.81709">
        <ele>111.9</ele>
        <time>2022-01-16T14:24:47Z</time>
      </trkpt>
      <trkpt lat="43.67383" lon="3.81725">
        <ele>112.4</ele>
        <time>2022-01-16T14:24:57Z</time>
      </trkpt>
      <trkpt lat="43.67355" lon="3.81738">
        <ele>113.2</ele>
        <time>2022-01-16T14:25:07Z</time>
      </trkpt>
      <trkpt lat="43.67343" lon="3.81751">
        <ele>113.6</ele>
        <time>2022-01-16T14:25:17Z</time>
      </trkpt>
      <trkpt lat="43.67335" lon="3.81766">
        <ele>115.2</ele>
        <time>2022-01-16T14:25:57Z</time>
      </trkpt>
      <trkpt lat="43.67323" lon="3.81785">
        <ele>116.9</ele>
        <time>2022-01-16T14:26:17Z</time>
      </trkpt>
      <trkpt lat="43.67316" lon="3.81798">
        <ele>118</ele>
        <time>2022-01-16T14:26:27Z</time>
      </trkpt>
      <trkpt lat="43.67306" lon="3.81821">
        <ele>118.8</ele>
        <time>2022-01-16T14:26:37Z</time>
      </trkpt>
      <trkpt lat="43.67299" lon="3.8184">
        <ele>120.3</ele>
        <time>2022-01-16T14:26:47Z</time>
      </trkpt>
      <trkpt lat="43.67291" lon="3.8186">
        <ele>122.8</ele>
        <time>2022-01-16T14:26:57Z</time>
      </trkpt>
      <trkpt lat="43.67283" lon="3.8188">
        <ele>124.3</ele>
        <time>2022-01-16T14:27:07Z</time>
      </trkpt>
      <trkpt lat="43.67272" lon="3.81899">
        <ele>126.3</ele>
        <time>2022-01-16T14:27:17Z</time>
      </trkpt>
      <trkpt lat="43.67262" lon="3.8192">
        <ele>127.6</ele>
        <time>2022-01-16T14:27:27Z</time>
      </trkpt>
      <trkpt lat="43.6725" lon="3.81941">
        <ele>127.9</ele>
        <time>2022-01-16T14:27:37Z</time>
      </trkpt>
      <trkpt lat="43.6724" lon="3.81963">
        <ele>128.6</ele>
        <time>2022-01-16T14:27:47Z</time>
      </trkpt>
      <trkpt lat="43.67229" lon="3.81983">
        <ele>129.6</ele>
        <time>2022-01-16T14:27:57Z</time>
      </trkpt>
      <trkpt lat="43.67217" lon="3.82004">
        <ele>130</ele>
        <time>2022-01-16T14:28:07Z</time>
      </trkpt>
      <trkpt lat="43.67199" lon="3.82029">
        <ele>130</ele>
        <time>2022-01-16T14:28:17Z</time>
      </trkpt>
      <trkpt lat="43.67176" lon="3.82062">
        <ele>129.5</ele>
        <time>2022-01-16T14:28:27Z</time>
      </trkpt>
      <trkpt lat="43.67146" lon="3.82104">
        <ele>127.3</ele>
        <time>2022-01-16T14:28:37Z</time>
      </trkpt>
      <trkpt lat="43.67106" lon="3.8216">
        <ele>124.1</ele>
        <time>2022-01-16T14:28:47Z</time>
      </trkpt>
      <trkpt lat="43.67074" lon="3.82239">
        <ele>120.1</ele>
        <time>2022-01-16T14:28:57Z</time>
      </trkpt>
      <trkpt lat="43.67124" lon="3.82303">
        <ele>118.6</ele>
        <time>2022-01-16T14:29:07Z</time>
      </trkpt>
      <trkpt lat="43.67117" lon="3.82337">
        <ele>118</ele>
        <time>2022-01-16T14:29:17Z</time>
      </trkpt>
      <trkpt lat="43.67088" lon="3.82386">
        <ele>114.8</ele>
        <time>2022-01-16T14:29:27Z</time>
      </trkpt>
      <trkpt lat="43.67066" lon="3.82428">
        <ele>111.3</ele>
        <time>2022-01-16T14:29:37Z</time>
      </trkpt>
      <trkpt lat="43.67042" lon="3.82466">
        <ele>110.3</ele>
        <time>2022-01-16T14:29:47Z</time>
      </trkpt>
      <trkpt lat="43.67011" lon="3.82499">
        <ele>108.7</ele>
        <time>2022-01-16T14:29:57Z</time>
      </trkpt>
      <trkpt lat="43.66972" lon="3.82535">
        <ele>108.8</ele>
        <time>2022-01-16T14:30:07Z</time>
      </trkpt>
      <trkpt lat="43.66935" lon="3.82568">
        <ele>109.1</ele>
        <time>2022-01-16T14:30:17Z</time>
      </trkpt>
      <trkpt lat="43.66918" lon="3.82584">
        <ele>109</ele>
        <time>2022-01-16T14:30:27Z</time>
      </trkpt>
      <trkpt lat="43.66887" lon="3.82609">
        <ele>109.2</ele>
        <time>2022-01-16T14:30:37Z</time>
      </trkpt>
      <trkpt lat="43.66865" lon="3.82636">
        <ele>110.9</ele>
        <time>2022-01-16T14:30:47Z</time>
      </trkpt>
      <trkpt lat="43.66844" lon="3.82655">
        <ele>113.8</ele>
        <time>2022-01-16T14:30:57Z</time>
      </trkpt>
      <trkpt lat="43.66827" lon="3.82667">
        <ele>114.2</ele>
        <time>2022-01-16T14:31:07Z</time>
      </trkpt>
      <trkpt lat="43.6681" lon="3.82682">
        <ele>115</ele>
        <time>2022-01-16T14:31:17Z</time>
      </trkpt>
      <trkpt lat="43.66777" lon="3.82713">
        <ele>114.6</ele>
        <time>2022-01-16T14:31:27Z</time>
      </trkpt>
      <trkpt lat="43.66745" lon="3.82738">
        <ele>114.9</ele>
        <time>2022-01-16T14:31:37Z</time>
      </trkpt>
      <trkpt lat="43.66715" lon="3.82762">
        <ele>114.5</ele>
        <time>2022-01-16T14:31:47Z</time>
      </trkpt>
      <trkpt lat="43.66684" lon="3.82791">
        <ele>114.3</ele>
        <time>2022-01-16T14:31:57Z</time>
      </trkpt>
      <trkpt lat="43.6665" lon="3.8282">
        <ele>114.5</ele>
        <time>2022-01-16T14:32:07Z</time>
      </trkpt>
      <trkpt lat="43.66622" lon="3.82853">
        <ele>115</ele>
        <time>2022-01-16T14:32:17Z</time>
      </trkpt>
      <trkpt lat="43.66615" lon="3.82895">
        <ele>115.2</ele>
        <time>2022-01-16T14:32:27Z</time>
      </trkpt>
      <trkpt lat="43.66625" lon="3.82937">
        <ele>116.4</ele>
        <time>2022-01-16T14:32:37Z</time>
      </trkpt>
      <trkpt lat="43.6664" lon="3.82973">
        <ele>117.1</ele>
        <time>2022-01-16T14:32:47Z</time>
      </trkpt>
      <trkpt lat="43.66648" lon="3.83017">
        <ele>117.5</ele>
        <time>2022-01-16T14:32:57Z</time>
      </trkpt>
      <trkpt lat="43.66645" lon="3.83063">
        <ele>117</ele>
        <time>2022-01-16T14:33:07Z</time>
      </trkpt>
      <trkpt lat="43.66636" lon="3.83104">
        <ele>117.1</ele>
        <time>2022-01-16T14:33:17Z</time>
      </trkpt>
      <trkpt lat="43.66631" lon="3.83142">
        <ele>118.4</ele>
        <time>2022-01-16T14:33:27Z</time>
      </trkpt>
      <trkpt lat="43.66625" lon="3.83177">
        <ele>118.8</ele>
        <time>2022-01-16T14:33:37Z</time>
      </trkpt>
      <trkpt lat="43.66606" lon="3.83223">
        <ele>115.1</ele>
        <time>2022-01-16T14:33:47Z</time>
      </trkpt>
      <trkpt lat="43.66589" lon="3.83288">
        <ele>111.3</ele>
        <time>2022-01-16T14:33:57Z</time>
      </trkpt>
      <trkpt lat="43.66588" lon="3.8336">
        <ele>108.4</ele>
        <time>2022-01-16T14:34:07Z</time>
      </trkpt>
      <trkpt lat="43.66604" lon="3.83429">
        <ele>106.1</ele>
        <time>2022-01-16T14:34:17Z</time>
      </trkpt>
      <trkpt lat="43.66603" lon="3.83516">
        <ele>101.5</ele>
        <time>2022-01-16T14:34:27Z</time>
      </trkpt>
      <trkpt lat="43.66594" lon="3.8358">
        <ele>100.2</ele>
        <time>2022-01-16T14:34:37Z</time>
      </trkpt>
      <trkpt lat="43.66604" lon="3.83637">
        <ele>100.2</ele>
        <time>2022-01-16T14:34:47Z</time>
      </trkpt>
      <trkpt lat="43.66602" lon="3.83719">
        <ele>92.6</ele>
        <time>2022-01-16T14:34:57Z</time>
      </trkpt>
      <trkpt lat="43.66614" lon="3.83808">
        <ele>88.2</ele>
        <time>2022-01-16T14:35:07Z</time>
      </trkpt>
      <trkpt lat="43.66588" lon="3.83842">
        <ele>86.9</ele>
        <time>2022-01-16T14:35:17Z</time>
      </trkpt>
      <trkpt lat="43.66578" lon="3.83807">
        <ele>84.3</ele>
        <time>2022-01-16T14:35:27Z</time>
      </trkpt>
      <trkpt lat="43.66543" lon="3.83826">
        <ele>80.5</ele>
        <time>2022-01-16T14:35:37Z</time>
      </trkpt>
      <trkpt lat="43.66479" lon="3.83845">
        <ele>77.8</ele>
        <time>2022-01-16T14:35:47Z</time>
      </trkpt>
      <trkpt lat="43.66417" lon="3.83866">
        <ele>74.7</ele>
        <time>2022-01-16T14:35:57Z</time>
      </trkpt>
      <trkpt lat="43.66344" lon="3.83914">
        <ele>69.6</ele>
        <time>2022-01-16T14:36:07Z</time>
      </trkpt>
      <trkpt lat="43.66302" lon="3.83965">
        <ele>66.2</ele>
        <time>2022-01-16T14:36:17Z</time>
      </trkpt>
      <trkpt lat="43.66305" lon="3.84052">
        <ele>65</ele>
        <time>2022-01-16T14:36:27Z</time>
      </trkpt>
      <trkpt lat="43.66291" lon="3.84105">
        <ele>63.1</ele>
        <time>2022-01-16T14:36:37Z</time>
      </trkpt>
      <trkpt lat="43.66285" lon="3.84178">
        <ele>61.7</ele>
        <time>2022-01-16T14:36:47Z</time>
      </trkpt>
      <trkpt lat="43.66288" lon="3.84245">
        <ele>60.5</ele>
        <time>2022-01-16T14:36:57Z</time>
      </trkpt>
      <trkpt lat="43.66263" lon="3.84289">
        <ele>59.6</ele>
        <time>2022-01-16T14:37:07Z</time>
      </trkpt>
      <trkpt lat="43.66234" lon="3.84337">
        <ele>59</ele>
        <time>2022-01-16T14:37:17Z</time>
      </trkpt>
      <trkpt lat="43.66216" lon="3.84381">
        <ele>57.9</ele>
        <time>2022-01-16T14:37:27Z</time>
      </trkpt>
      <trkpt lat="43.66202" lon="3.84422">
        <ele>58.3</ele>
        <time>2022-01-16T14:37:37Z</time>
      </trkpt>
      <trkpt lat="43.66165" lon="3.8445">
        <ele>58.8</ele>
        <time>2022-01-16T14:37:47Z</time>
      </trkpt>
      <trkpt lat="43.6613" lon="3.84478">
        <ele>58.9</ele>
        <time>2022-01-16T14:37:57Z</time>
      </trkpt>
      <trkpt lat="43.66108" lon="3.84451">
        <ele>59.1</ele>
        <time>2022-01-16T14:38:07Z</time>
      </trkpt>
      <trkpt lat="43.66087" lon="3.84417">
        <ele>62.5</ele>
        <time>2022-01-16T14:38:17Z</time>
      </trkpt>
      <trkpt lat="43.66075" lon="3.84385">
        <ele>63.3</ele>
        <time>2022-01-16T14:38:27Z</time>
      </trkpt>
      <trkpt lat="43.66055" lon="3.84342">
        <ele>65.1</ele>
        <time>2022-01-16T14:38:37Z</time>
      </trkpt>
      <trkpt lat="43.66042" lon="3.84313">
        <ele>66.2</ele>
        <time>2022-01-16T14:38:47Z</time>
      </trkpt>
      <trkpt lat="43.66025" lon="3.84277">
        <ele>64.6</ele>
        <time>2022-01-16T14:38:57Z</time>
      </trkpt>
      <trkpt lat="43.66013" lon="3.84238">
        <ele>65.3</ele>
        <time>2022-01-16T14:39:07Z</time>
      </trkpt>
      <trkpt lat="43.65998" lon="3.84198">
        <ele>63.9</ele>
        <time>2022-01-16T14:39:17Z</time>
      </trkpt>
      <trkpt lat="43.65976" lon="3.84155">
        <ele>65.8</ele>
        <time>2022-01-16T14:39:27Z</time>
      </trkpt>
      <trkpt lat="43.65964" lon="3.84124">
        <ele>67.1</ele>
        <time>2022-01-16T14:39:37Z</time>
      </trkpt>
      <trkpt lat="43.65945" lon="3.84092">
        <ele>68.9</ele>
        <time>2022-01-16T14:39:47Z</time>
      </trkpt>
      <trkpt lat="43.65925" lon="3.84076">
        <ele>71.3</ele>
        <time>2022-01-16T14:39:57Z</time>
      </trkpt>
      <trkpt lat="43.65903" lon="3.84036">
        <ele>71.6</ele>
        <time>2022-01-16T14:40:37Z</time>
      </trkpt>
      <trkpt lat="43.65886" lon="3.83996">
        <ele>70.3</ele>
        <time>2022-01-16T14:40:57Z</time>
      </trkpt>
      <trkpt lat="43.65864" lon="3.83972">
        <ele>71.6</ele>
        <time>2022-01-16T14:41:07Z</time>
      </trkpt>
      <trkpt lat="43.65847" lon="3.83938">
        <ele>73.1</ele>
        <time>2022-01-16T14:41:17Z</time>
      </trkpt>
      <trkpt lat="43.6583" lon="3.83904">
        <ele>74</ele>
        <time>2022-01-16T14:41:27Z</time>
      </trkpt>
      <trkpt lat="43.65809" lon="3.8388">
        <ele>76.4</ele>
        <time>2022-01-16T14:41:37Z</time>
      </trkpt>
      <trkpt lat="43.65783" lon="3.83862">
        <ele>77.6</ele>
        <time>2022-01-16T14:41:47Z</time>
      </trkpt>
      <trkpt lat="43.65757" lon="3.83851">
        <ele>78.4</ele>
        <time>2022-01-16T14:41:57Z</time>
      </trkpt>
      <trkpt lat="43.6573" lon="3.83843">
        <ele>79.7</ele>
        <time>2022-01-16T14:42:07Z</time>
      </trkpt>
      <trkpt lat="43.65701" lon="3.83827">
        <ele>79.7</ele>
        <time>2022-01-16T14:42:17Z</time>
      </trkpt>
      <trkpt lat="43.65672" lon="3.8382">
        <ele>81.5</ele>
        <time>2022-01-16T14:42:27Z</time>
      </trkpt>
      <trkpt lat="43.6565" lon="3.83808">
        <ele>82.2</ele>
        <time>2022-01-16T14:42:37Z</time>
      </trkpt>
      <trkpt lat="43.65625" lon="3.83776">
        <ele>81.9</ele>
        <time>2022-01-16T14:42:47Z</time>
      </trkpt>
      <trkpt lat="43.65606" lon="3.83744">
        <ele>82.7</ele>
        <time>2022-01-16T14:42:57Z</time>
      </trkpt>
      <trkpt lat="43.65598" lon="3.8373">
        <ele>82.8</ele>
        <time>2022-01-16T14:43:07Z</time>
      </trkpt>
      <trkpt lat="43.65605" lon="3.83713">
        <ele>81.1</ele>
        <time>2022-01-16T14:43:37Z</time>
      </trkpt>
      <trkpt lat="43.65588" lon="3.83674">
        <ele>81.7</ele>
        <time>2022-01-16T14:43:57Z</time>
      </trkpt>
      <trkpt lat="43.65575" lon="3.83642">
        <ele>82</ele>
        <time>2022-01-16T14:44:07Z</time>
      </trkpt>
      <trkpt lat="43.65563" lon="3.83618">
        <ele>83.4</ele>
        <time>2022-01-16T14:44:17Z</time>
      </trkpt>
      <trkpt lat="43.65554" lon="3.83594">
        <ele>84.2</ele>
        <time>2022-01-16T14:44:27Z</time>
      </trkpt>
      <trkpt lat="43.65545" lon="3.83572">
        <ele>85.5</ele>
        <time>2022-01-16T14:44:37Z</time>
      </trkpt>
      <trkpt lat="43.65536" lon="3.83551">
        <ele>86.9</ele>
        <time>2022-01-16T14:44:47Z</time>
      </trkpt>
      <trkpt lat="43.65525" lon="3.83528">
        <ele>88.3</ele>
        <time>2022-01-16T14:44:57Z</time>
      </trkpt>
      <trkpt lat="43.65511" lon="3.83506">
        <ele>89.5</ele>
        <time>2022-01-16T14:45:07Z</time>
      </trkpt>
      <trkpt lat="43.65492" lon="3.83488">
        <ele>89.1</ele>
        <time>2022-01-16T14:45:17Z</time>
      </trkpt>
      <trkpt lat="43.65471" lon="3.83469">
        <ele>86.8</ele>
        <time>2022-01-16T14:45:27Z</time>
      </trkpt>
      <trkpt lat="43.65445" lon="3.83456">
        <ele>92.7</ele>
        <time>2022-01-16T14:45:37Z</time>
      </trkpt>
      <trkpt lat="43.65424" lon="3.83474">
        <ele>93</ele>
        <time>2022-01-16T14:45:47Z</time>
      </trkpt>
      <trkpt lat="43.65402" lon="3.83493">
        <ele>93</ele>
        <time>2022-01-16T14:45:57Z</time>
      </trkpt>
      <trkpt lat="43.65378" lon="3.83514">
        <ele>92.8</ele>
        <time>2022-01-16T14:46:17Z</time>
      </trkpt>
      <trkpt lat="43.65353" lon="3.83538">
        <ele>93.3</ele>
        <time>2022-01-16T14:46:27Z</time>
      </trkpt>
      <trkpt lat="43.65325" lon="3.83562">
        <ele>94.5</ele>
        <time>2022-01-16T14:46:37Z</time>
      </trkpt>
      <trkpt lat="43.65297" lon="3.83584">
        <ele>94.3</ele>
        <time>2022-01-16T14:46:47Z</time>
      </trkpt>
      <trkpt lat="43.65264" lon="3.83586">
        <ele>94.4</ele>
        <time>2022-01-16T14:46:57Z</time>
      </trkpt>
      <trkpt lat="43.65233" lon="3.83574">
        <ele>93.7</ele>
        <time>2022-01-16T14:47:07Z</time>
      </trkpt>
      <trkpt lat="43.65204" lon="3.83558">
        <ele>93.3</ele>
        <time>2022-01-16T14:47:17Z</time>
      </trkpt>
      <trkpt lat="43.65174" lon="3.83536">
        <ele>92.6</ele>
        <time>2022-01-16T14:47:27Z</time>
      </trkpt>
      <trkpt lat="43.65132" lon="3.83502">
        <ele>91.2</ele>
        <time>2022-01-16T14:47:37Z</time>
      </trkpt>
      <trkpt lat="43.65083" lon="3.83457">
        <ele>87.4</ele>
        <time>2022-01-16T14:47:47Z</time>
      </trkpt>
      <trkpt lat="43.65042" lon="3.83408">
        <ele>86.8</ele>
        <time>2022-01-16T14:47:57Z</time>
      </trkpt>
      <trkpt lat="43.65003" lon="3.83364">
        <ele>85.2</ele>
        <time>2022-01-16T14:48:07Z</time>
      </trkpt>
      <trkpt lat="43.6497" lon="3.83323">
        <ele>83.9</ele>
        <time>2022-01-16T14:48:17Z</time>
      </trkpt>
      <trkpt lat="43.64966" lon="3.83297">
        <ele>84.2</ele>
        <time>2022-01-16T14:48:27Z</time>
      </trkpt>
      <trkpt lat="43.64933" lon="3.83284">
        <ele>82.7</ele>
        <time>2022-01-16T14:48:37Z</time>
      </trkpt>
      <trkpt lat="43.6489" lon="3.83257">
        <ele>82</ele>
        <time>2022-01-16T14:48:47Z</time>
      </trkpt>
      <trkpt lat="43.64847" lon="3.83231">
        <ele>81.7</ele>
        <time>2022-01-16T14:48:57Z</time>
      </trkpt>
      <trkpt lat="43.64813" lon="3.83205">
        <ele>81</ele>
        <time>2022-01-16T14:49:07Z</time>
      </trkpt>
      <trkpt lat="43.64766" lon="3.8319">
        <ele>80.1</ele>
        <time>2022-01-16T14:49:17Z</time>
      </trkpt>
      <trkpt lat="43.64716" lon="3.83162">
        <ele>79.8</ele>
        <time>2022-01-16T14:49:27Z</time>
      </trkpt>
      <trkpt lat="43.64666" lon="3.83135">
        <ele>79</ele>
        <time>2022-01-16T14:49:37Z</time>
      </trkpt>
      <trkpt lat="43.64621" lon="3.83097">
        <ele>78.9</ele>
        <time>2022-01-16T14:49:47Z</time>
      </trkpt>
      <trkpt lat="43.64583" lon="3.83049">
        <ele>78.2</ele>
        <time>2022-01-16T14:49:57Z</time>
      </trkpt>
      <trkpt lat="43.64536" lon="3.83029">
        <ele>78</ele>
        <time>2022-01-16T14:50:07Z</time>
      </trkpt>
      <trkpt lat="43.64484" lon="3.83051">
        <ele>77.2</ele>
        <time>2022-01-16T14:50:17Z</time>
      </trkpt>
      <trkpt lat="43.64434" lon="3.8308">
        <ele>76.1</ele>
        <time>2022-01-16T14:50:27Z</time>
      </trkpt>
      <trkpt lat="43.64376" lon="3.83092">
        <ele>74.4</ele>
        <time>2022-01-16T14:50:37Z</time>
      </trkpt>
      <trkpt lat="43.64322" lon="3.83081">
        <ele>73.4</ele>
        <time>2022-01-16T14:50:47Z</time>
      </trkpt>
      <trkpt lat="43.64275" lon="3.83053">
        <ele>73.9</ele>
        <time>2022-01-16T14:50:57Z</time>
      </trkpt>
      <trkpt lat="43.64234" lon="3.83025">
        <ele>73.1</ele>
        <time>2022-01-16T14:51:07Z</time>
      </trkpt>
      <trkpt lat="43.64196" lon="3.82995">
        <ele>75.2</ele>
        <time>2022-01-16T14:51:17Z</time>
      </trkpt>
      <trkpt lat="43.64159" lon="3.82963">
        <ele>76.1</ele>
        <time>2022-01-16T14:51:27Z</time>
      </trkpt>
      <trkpt lat="43.64124" lon="3.82932">
        <ele>75.9</ele>
        <time>2022-01-16T14:51:37Z</time>
      </trkpt>
      <trkpt lat="43.6409" lon="3.82903">
        <ele>76</ele>
        <time>2022-01-16T14:51:47Z</time>
      </trkpt>
      <trkpt lat="43.64055" lon="3.82888">
        <ele>78</ele>
        <time>2022-01-16T14:51:57Z</time>
      </trkpt>
      <trkpt lat="43.64025" lon="3.82889">
        <ele>78.1</ele>
        <time>2022-01-16T14:52:07Z</time>
      </trkpt>
      <trkpt lat="43.63999" lon="3.82922">
        <ele>78</ele>
        <time>2022-01-16T14:52:17Z</time>
      </trkpt>
      <trkpt lat="43.63972" lon="3.82888">
        <ele>78.1</ele>
        <time>2022-01-16T14:52:27Z</time>
      </trkpt>
      <trkpt lat="43.63947" lon="3.82853">
        <ele>78.4</ele>
        <time>2022-01-16T14:52:37Z</time>
      </trkpt>
      <trkpt lat="43.63915" lon="3.82858">
        <ele>77.2</ele>
        <time>2022-01-16T14:52:47Z</time>
      </trkpt>
      <trkpt lat="43.63893" lon="3.82914">
        <ele>76.2</ele>
        <time>2022-01-16T14:52:57Z</time>
      </trkpt>
      <trkpt lat="43.63857" lon="3.82966">
        <ele>74.9</ele>
        <time>2022-01-16T14:53:07Z</time>
      </trkpt>
      <trkpt lat="43.63818" lon="3.83012">
        <ele>73.7</ele>
        <time>2022-01-16T14:53:17Z</time>
      </trkpt>
      <trkpt lat="43.63778" lon="3.83054">
        <ele>73</ele>
        <time>2022-01-16T14:53:27Z</time>
      </trkpt>
      <trkpt lat="43.63732" lon="3.83092">
        <ele>73.3</ele>
        <time>2022-01-16T14:53:37Z</time>
      </trkpt>
      <trkpt lat="43.63681" lon="3.83117">
        <ele>72.6</ele>
        <time>2022-01-16T14:53:47Z</time>
      </trkpt>
      <trkpt lat="43.63627" lon="3.83145">
        <ele>71.2</ele>
        <time>2022-01-16T14:53:57Z</time>
      </trkpt>
      <trkpt lat="43.63578" lon="3.83184">
        <ele>70.7</ele>
        <time>2022-01-16T14:54:07Z</time>
      </trkpt>
      <trkpt lat="43.63529" lon="3.83231">
        <ele>70</ele>
        <time>2022-01-16T14:54:17Z</time>
      </trkpt>
      <trkpt lat="43.63483" lon="3.83283">
        <ele>69.1</ele>
        <time>2022-01-16T14:54:27Z</time>
      </trkpt>
      <trkpt lat="43.63447" lon="3.83334">
        <ele>68.1</ele>
        <time>2022-01-16T14:54:37Z</time>
      </trkpt>
      <trkpt lat="43.63425" lon="3.83368">
        <ele>68</ele>
        <time>2022-01-16T14:54:47Z</time>
      </trkpt>
      <trkpt lat="43.63401" lon="3.83418">
        <ele>66.4</ele>
        <time>2022-01-16T14:54:57Z</time>
      </trkpt>
      <trkpt lat="43.63371" lon="3.83488">
        <ele>63</ele>
        <time>2022-01-16T14:55:07Z</time>
      </trkpt>
      <trkpt lat="43.63331" lon="3.83525">
        <ele>62.7</ele>
        <time>2022-01-16T14:55:17Z</time>
      </trkpt>
      <trkpt lat="43.63299" lon="3.83554">
        <ele>61.3</ele>
        <time>2022-01-16T14:55:27Z</time>
      </trkpt>
      <trkpt lat="43.63258" lon="3.83613">
        <ele>61.6</ele>
        <time>2022-01-16T14:55:37Z</time>
      </trkpt>
      <trkpt lat="43.63227" lon="3.83698">
        <ele>61.5</ele>
        <time>2022-01-16T14:55:47Z</time>
      </trkpt>
      <trkpt lat="43.63199" lon="3.83747">
        <ele>61.6</ele>
        <time>2022-01-16T14:55:57Z</time>
      </trkpt>
      <trkpt lat="43.63165" lon="3.83793">
        <ele>60.8</ele>
        <time>2022-01-16T14:56:07Z</time>
      </trkpt>
      <trkpt lat="43.63139" lon="3.83862">
        <ele>58</ele>
        <time>2022-01-16T14:56:17Z</time>
      </trkpt>
      <trkpt lat="43.6312" lon="3.83929">
        <ele>56.9</ele>
        <time>2022-01-16T14:56:27Z</time>
      </trkpt>
      <trkpt lat="43.631" lon="3.83988">
        <ele>56.4</ele>
        <time>2022-01-16T14:56:37Z</time>
      </trkpt>
      <trkpt lat="43.63078" lon="3.84053">
        <ele>57</ele>
        <time>2022-01-16T14:56:47Z</time>
      </trkpt>
      <trkpt lat="43.63063" lon="3.84111">
        <ele>55.7</ele>
        <time>2022-01-16T14:56:57Z</time>
      </trkpt>
      <trkpt lat="43.63041" lon="3.84162">
        <ele>54.2</ele>
        <time>2022-01-16T14:57:07Z</time>
      </trkpt>
      <trkpt lat="43.63031" lon="3.84169">
        <ele>54</ele>
        <time>2022-01-16T14:59:27Z</time>
      </trkpt>
      <trkpt lat="43.62988" lon="3.8416">
        <ele>54.6</ele>
        <time>2022-01-16T14:59:47Z</time>
      </trkpt>
      <trkpt lat="43.62942" lon="3.84148">
        <ele>55</ele>
        <time>2022-01-16T14:59:57Z</time>
      </trkpt>
      <trkpt lat="43.62899" lon="3.84122">
        <ele>55.6</ele>
        <time>2022-01-16T15:00:07Z</time>
      </trkpt>
      <trkpt lat="43.6286" lon="3.84089">
        <ele>56.8</ele>
        <time>2022-01-16T15:00:17Z</time>
      </trkpt>
      <trkpt lat="43.62821" lon="3.84052">
        <ele>57.6</ele>
        <time>2022-01-16T15:00:27Z</time>
      </trkpt>
      <trkpt lat="43.62785" lon="3.84013">
        <ele>59.4</ele>
        <time>2022-01-16T15:00:37Z</time>
      </trkpt>
      <trkpt lat="43.62764" lon="3.83971">
        <ele>61.1</ele>
        <time>2022-01-16T15:00:47Z</time>
      </trkpt>
      <trkpt lat="43.62738" lon="3.83939">
        <ele>61.8</ele>
        <time>2022-01-16T15:00:57Z</time>
      </trkpt>
      <trkpt lat="43.62711" lon="3.83895">
        <ele>62.8</ele>
        <time>2022-01-16T15:01:07Z</time>
      </trkpt>
      <trkpt lat="43.62694" lon="3.83855">
        <ele>64.2</ele>
        <time>2022-01-16T15:01:17Z</time>
      </trkpt>
      <trkpt lat="43.6268" lon="3.83825">
        <ele>65.8</ele>
        <time>2022-01-16T15:01:27Z</time>
      </trkpt>
      <trkpt lat="43.62669" lon="3.83796">
        <ele>67.6</ele>
        <time>2022-01-16T15:01:37Z</time>
      </trkpt>
      <trkpt lat="43.62647" lon="3.83769">
        <ele>68.8</ele>
        <time>2022-01-16T15:01:47Z</time>
      </trkpt>
      <trkpt lat="43.62626" lon="3.83741">
        <ele>69.2</ele>
        <time>2022-01-16T15:01:57Z</time>
      </trkpt>
      <trkpt lat="43.62605" lon="3.83713">
        <ele>70.4</ele>
        <time>2022-01-16T15:02:07Z</time>
      </trkpt>
      <trkpt lat="43.62585" lon="3.83684">
        <ele>71.6</ele>
        <time>2022-01-16T15:02:17Z</time>
      </trkpt>
      <trkpt lat="43.62581" lon="3.83646">
        <ele>73.5</ele>
        <time>2022-01-16T15:02:27Z</time>
      </trkpt>
      <trkpt lat="43.62576" lon="3.83605">
        <ele>73.8</ele>
        <time>2022-01-16T15:02:37Z</time>
      </trkpt>
      <trkpt lat="43.62553" lon="3.83573">
        <ele>73.8</ele>
        <time>2022-01-16T15:02:47Z</time>
      </trkpt>
      <trkpt lat="43.62529" lon="3.83547">
        <ele>74.3</ele>
        <time>2022-01-16T15:02:57Z</time>
      </trkpt>
      <trkpt lat="43.62531" lon="3.8354">
        <ele>74.5</ele>
        <time>2022-01-16T15:03:07Z</time>
      </trkpt>
      <trkpt lat="43.62525" lon="3.83515">
        <ele>75.1</ele>
        <time>2022-01-16T15:03:17Z</time>
      </trkpt>
      <trkpt lat="43.62509" lon="3.83475">
        <ele>75.2</ele>
        <time>2022-01-16T15:03:27Z</time>
      </trkpt>
      <trkpt lat="43.62514" lon="3.83428">
        <ele>75.5</ele>
        <time>2022-01-16T15:03:37Z</time>
      </trkpt>
      <trkpt lat="43.62501" lon="3.83423">
        <ele>74.1</ele>
        <time>2022-01-16T15:03:47Z</time>
      </trkpt>
      <trkpt lat="43.62471" lon="3.83422">
        <ele>74.6</ele>
        <time>2022-01-16T15:03:57Z</time>
      </trkpt>
      <trkpt lat="43.6244" lon="3.83423">
        <ele>72.9</ele>
        <time>2022-01-16T15:04:07Z</time>
      </trkpt>
      <trkpt lat="43.6241" lon="3.83456">
        <ele>73.8</ele>
        <time>2022-01-16T15:04:17Z</time>
      </trkpt>
      <trkpt lat="43.62367" lon="3.83437">
        <ele>75</ele>
        <time>2022-01-16T15:04:27Z</time>
      </trkpt>
      <trkpt lat="43.62322" lon="3.83448">
        <ele>76</ele>
        <time>2022-01-16T15:04:37Z</time>
      </trkpt>
      <trkpt lat="43.62291" lon="3.83493">
        <ele>76.1</ele>
        <time>2022-01-16T15:04:47Z</time>
      </trkpt>
      <trkpt lat="43.62262" lon="3.83523">
        <ele>76.1</ele>
        <time>2022-01-16T15:04:57Z</time>
      </trkpt>
      <trkpt lat="43.62227" lon="3.83506">
        <ele>76</ele>
        <time>2022-01-16T15:05:07Z</time>
      </trkpt>
      <trkpt lat="43.62191" lon="3.83463">
        <ele>75.7</ele>
        <time>2022-01-16T15:05:17Z</time>
      </trkpt>
      <trkpt lat="43.62146" lon="3.83431">
        <ele>75</ele>
        <time>2022-01-16T15:05:27Z</time>
      </trkpt>
      <trkpt lat="43.62105" lon="3.83387">
        <ele>75</ele>
        <time>2022-01-16T15:05:37Z</time>
      </trkpt>
      <trkpt lat="43.62064" lon="3.83338">
        <ele>74.2</ele>
        <time>2022-01-16T15:05:47Z</time>
      </trkpt>
      <trkpt lat="43.62036" lon="3.83305">
        <ele>74</ele>
        <time>2022-01-16T15:06:07Z</time>
      </trkpt>
      <trkpt lat="43.62005" lon="3.83251">
        <ele>74.2</ele>
        <time>2022-01-16T15:06:27Z</time>
      </trkpt>
      <trkpt lat="43.6196" lon="3.83264">
        <ele>73.4</ele>
        <time>2022-01-16T15:06:37Z</time>
      </trkpt>
      <trkpt lat="43.61904" lon="3.83238">
        <ele>72.8</ele>
        <time>2022-01-16T15:06:47Z</time>
      </trkpt>
      <trkpt lat="43.61847" lon="3.83203">
        <ele>71.3</ele>
        <time>2022-01-16T15:06:57Z</time>
      </trkpt>
      <trkpt lat="43.61788" lon="3.83165">
        <ele>70</ele>
        <time>2022-01-16T15:07:07Z</time>
      </trkpt>
      <trkpt lat="43.61731" lon="3.83124">
        <ele>69.3</ele>
        <time>2022-01-16T15:07:17Z</time>
      </trkpt>
      <trkpt lat="43.61676" lon="3.83073">
        <ele>69.1</ele>
        <time>2022-01-16T15:07:27Z</time>
      </trkpt>
      <trkpt lat="43.61612" lon="3.83025">
        <ele>67</ele>
        <time>2022-01-16T15:07:37Z</time>
      </trkpt>
      <trkpt lat="43.61552" lon="3.82978">
        <ele>65.2</ele>
        <time>2022-01-16T15:07:47Z</time>
      </trkpt>
      <trkpt lat="43.61491" lon="3.82931">
        <ele>63.2</ele>
        <time>2022-01-16T15:07:57Z</time>
      </trkpt>
      <trkpt lat="43.61466" lon="3.82894">
        <ele>62.6</ele>
        <time>2022-01-16T15:08:07Z</time>
      </trkpt>
      <trkpt lat="43.61437" lon="3.8288">
        <ele>61.2</ele>
        <time>2022-01-16T15:08:17Z</time>
      </trkpt>
      <trkpt lat="43.61412" lon="3.82885">
        <ele>59.8</ele>
        <time>2022-01-16T15:08:27Z</time>
      </trkpt>
      <trkpt lat="43.61379" lon="3.82925">
        <ele>59.6</ele>
        <time>2022-01-16T15:08:37Z</time>
      </trkpt>
      <trkpt lat="43.61355" lon="3.82931">
        <ele>58.8</ele>
        <time>2022-01-16T15:08:47Z</time>
      </trkpt>
      <trkpt lat="43.61311" lon="3.82907">
        <ele>57.3</ele>
        <time>2022-01-16T15:08:57Z</time>
      </trkpt>
      <trkpt lat="43.61272" lon="3.82927">
        <ele>57.3</ele>
        <time>2022-01-16T15:09:07Z</time>
      </trkpt>
      <trkpt lat="43.61223" lon="3.82952">
        <ele>57</ele>
        <time>2022-01-16T15:09:17Z</time>
      </trkpt>
      <trkpt lat="43.6119" lon="3.82932">
        <ele>57</ele>
        <time>2022-01-16T15:09:27Z</time>
      </trkpt>
      <trkpt lat="43.61166" lon="3.82886">
        <ele>57</ele>
        <time>2022-01-16T15:09:37Z</time>
      </trkpt>
      <trkpt lat="43.61154" lon="3.82882">
        <ele>57</ele>
        <time>2022-01-16T15:10:37Z</time>
      </trkpt>
      <trkpt lat="43.61123" lon="3.8285">
        <ele>57.6</ele>
        <time>2022-01-16T15:10:57Z</time>
      </trkpt>
      <trkpt lat="43.61086" lon="3.82831">
        <ele>58.8</ele>
        <time>2022-01-16T15:11:07Z</time>
      </trkpt>
      <trkpt lat="43.61055" lon="3.82815">
        <ele>60.4</ele>
        <time>2022-01-16T15:11:17Z</time>
      </trkpt>
    </trkseg>
  </trk>
</gpx>